<?xml version="1.0" encoding="UTF-8" standalone="no" ?>
<gpx xmlns="http://www.topografix.com/GPX/1/1" xmlns:xsi="http://www.w3.org/2001/XMLSchema-instance" xsi:schemaLocation="http://www.topografix.com/GPX/1/1 http://www.topografix.com/GPX/1/1/gpx.xsd" version="1.1" creator="VisuGPX - https://www.visugpx.com">
  <metadata>
    <name>col des tures montee   descente</name>
    <desc><![CDATA[départ du centre de vacance]]></desc>
  </metadata>
  <trk>
    <name><![CDATA[28-S1]]></name>
    <trkseg>
      <trkpt lat="45.01754" lon="6.63218">
        <ele>1592</ele>
        <time>2010-07-21T08:20:44Z</time>
      </trkpt>
      <trkpt lat="45.01757" lon="6.63221">
        <ele>1592</ele>
        <time>2010-07-21T08:20:46Z</time>
      </trkpt>
      <trkpt lat="45.01769" lon="6.63237">
        <ele>1593</ele>
        <time>2010-07-21T08:20:54Z</time>
      </trkpt>
      <trkpt lat="45.01777" lon="6.63255">
        <ele>1594</ele>
        <time>2010-07-21T08:21:01Z</time>
      </trkpt>
      <trkpt lat="45.01786" lon="6.63273">
        <ele>1595</ele>
        <time>2010-07-21T08:21:08Z</time>
      </trkpt>
      <trkpt lat="45.01794" lon="6.63284">
        <ele>1596</ele>
        <time>2010-07-21T08:21:13Z</time>
      </trkpt>
      <trkpt lat="45.01802" lon="6.63288">
        <ele>1596</ele>
        <time>2010-07-21T08:21:17Z</time>
      </trkpt>
      <trkpt lat="45.01807" lon="6.6329">
        <ele>1596</ele>
        <time>2010-07-21T08:21:20Z</time>
      </trkpt>
      <trkpt lat="45.01809" lon="6.6329">
        <ele>1596</ele>
        <time>2010-07-21T08:21:21Z</time>
      </trkpt>
      <trkpt lat="45.0183" lon="6.63301">
        <ele>1597</ele>
        <time>2010-07-21T08:21:31Z</time>
      </trkpt>
      <trkpt lat="45.01846" lon="6.63311">
        <ele>1602</ele>
        <time>2010-07-21T08:21:41Z</time>
      </trkpt>
      <trkpt lat="45.01863" lon="6.63327">
        <ele>1602</ele>
        <time>2010-07-21T08:21:52Z</time>
      </trkpt>
      <trkpt lat="45.01874" lon="6.63342">
        <ele>1604</ele>
        <time>2010-07-21T08:22:01Z</time>
      </trkpt>
      <trkpt lat="45.01882" lon="6.63355">
        <ele>1604</ele>
        <time>2010-07-21T08:22:08Z</time>
      </trkpt>
      <trkpt lat="45.01886" lon="6.63361">
        <ele>1605</ele>
        <time>2010-07-21T08:22:15Z</time>
      </trkpt>
      <trkpt lat="45.01887" lon="6.63362">
        <ele>1605</ele>
        <time>2010-07-21T08:22:16Z</time>
      </trkpt>
      <trkpt lat="45.01891" lon="6.63368">
        <ele>1605</ele>
        <time>2010-07-21T08:22:22Z</time>
      </trkpt>
      <trkpt lat="45.01892" lon="6.6337">
        <ele>1605</ele>
        <time>2010-07-21T08:22:23Z</time>
      </trkpt>
      <trkpt lat="45.01896" lon="6.63379">
        <ele>1605</ele>
        <time>2010-07-21T08:22:28Z</time>
      </trkpt>
      <trkpt lat="45.01901" lon="6.63399">
        <ele>1606</ele>
        <time>2010-07-21T08:22:37Z</time>
      </trkpt>
      <trkpt lat="45.01904" lon="6.63414">
        <ele>1608</ele>
        <time>2010-07-21T08:22:43Z</time>
      </trkpt>
      <trkpt lat="45.01909" lon="6.63439">
        <ele>1608</ele>
        <time>2010-07-21T08:22:53Z</time>
      </trkpt>
      <trkpt lat="45.01913" lon="6.6346">
        <ele>1607</ele>
        <time>2010-07-21T08:23:01Z</time>
      </trkpt>
      <trkpt lat="45.01922" lon="6.6348">
        <ele>1613</ele>
        <time>2010-07-21T08:23:09Z</time>
      </trkpt>
      <trkpt lat="45.01931" lon="6.63491">
        <ele>1613</ele>
        <time>2010-07-21T08:23:16Z</time>
      </trkpt>
      <trkpt lat="45.01935" lon="6.63496">
        <ele>1613</ele>
        <time>2010-07-21T08:23:22Z</time>
      </trkpt>
      <trkpt lat="45.01945" lon="6.63498">
        <ele>1614</ele>
        <time>2010-07-21T08:23:28Z</time>
      </trkpt>
      <trkpt lat="45.01958" lon="6.63499">
        <ele>1615</ele>
        <time>2010-07-21T08:23:35Z</time>
      </trkpt>
      <trkpt lat="45.01974" lon="6.63497">
        <ele>1616</ele>
        <time>2010-07-21T08:23:43Z</time>
      </trkpt>
      <trkpt lat="45.01985" lon="6.63489">
        <ele>1617</ele>
        <time>2010-07-21T08:23:49Z</time>
      </trkpt>
      <trkpt lat="45.01995" lon="6.63475">
        <ele>1617</ele>
        <time>2010-07-21T08:23:56Z</time>
      </trkpt>
      <trkpt lat="45.02001" lon="6.63455">
        <ele>1621</ele>
        <time>2010-07-21T08:24:02Z</time>
      </trkpt>
      <trkpt lat="45.02004" lon="6.6343">
        <ele>1620</ele>
        <time>2010-07-21T08:24:09Z</time>
      </trkpt>
      <trkpt lat="45.02007" lon="6.634">
        <ele>1620</ele>
        <time>2010-07-21T08:24:18Z</time>
      </trkpt>
      <trkpt lat="45.02008" lon="6.63391">
        <ele>1621</ele>
        <time>2010-07-21T08:24:21Z</time>
      </trkpt>
      <trkpt lat="45.02011" lon="6.63394">
        <ele>1621</ele>
        <time>2010-07-21T08:24:25Z</time>
      </trkpt>
      <trkpt lat="45.02011" lon="6.63397">
        <ele>1621</ele>
        <time>2010-07-21T08:24:26Z</time>
      </trkpt>
      <trkpt lat="45.02015" lon="6.6343">
        <ele>1621</ele>
        <time>2010-07-21T08:24:37Z</time>
      </trkpt>
      <trkpt lat="45.02018" lon="6.63446">
        <ele>1621</ele>
        <time>2010-07-21T08:24:43Z</time>
      </trkpt>
      <trkpt lat="45.02022" lon="6.63451">
        <ele>1622</ele>
        <time>2010-07-21T08:24:48Z</time>
      </trkpt>
      <trkpt lat="45.02022" lon="6.63449">
        <ele>1622</ele>
        <time>2010-07-21T08:24:52Z</time>
      </trkpt>
      <trkpt lat="45.0202" lon="6.63439">
        <ele>1621</ele>
        <time>2010-07-21T08:24:56Z</time>
      </trkpt>
      <trkpt lat="45.02016" lon="6.63406">
        <ele>1621</ele>
        <time>2010-07-21T08:25:04Z</time>
      </trkpt>
      <trkpt lat="45.02015" lon="6.63387">
        <ele>1621</ele>
        <time>2010-07-21T08:25:09Z</time>
      </trkpt>
      <trkpt lat="45.02014" lon="6.63368">
        <ele>1620</ele>
        <time>2010-07-21T08:25:14Z</time>
      </trkpt>
      <trkpt lat="45.02016" lon="6.63332">
        <ele>1619</ele>
        <time>2010-07-21T08:25:22Z</time>
      </trkpt>
      <trkpt lat="45.02018" lon="6.6332">
        <ele>1619</ele>
        <time>2010-07-21T08:25:26Z</time>
      </trkpt>
      <trkpt lat="45.02019" lon="6.6331">
        <ele>1620</ele>
        <time>2010-07-21T08:25:30Z</time>
      </trkpt>
      <trkpt lat="45.0202" lon="6.63284">
        <ele>1620</ele>
        <time>2010-07-21T08:25:40Z</time>
      </trkpt>
      <trkpt lat="45.0202" lon="6.63261">
        <ele>1619</ele>
        <time>2010-07-21T08:25:47Z</time>
      </trkpt>
      <trkpt lat="45.02019" lon="6.63249">
        <ele>1618</ele>
        <time>2010-07-21T08:25:54Z</time>
      </trkpt>
      <trkpt lat="45.02018" lon="6.63239">
        <ele>1618</ele>
        <time>2010-07-21T08:26:01Z</time>
      </trkpt>
      <trkpt lat="45.02016" lon="6.63224">
        <ele>1618</ele>
        <time>2010-07-21T08:26:08Z</time>
      </trkpt>
      <trkpt lat="45.02012" lon="6.63199">
        <ele>1618</ele>
        <time>2010-07-21T08:26:14Z</time>
      </trkpt>
      <trkpt lat="45.02007" lon="6.63158">
        <ele>1616</ele>
        <time>2010-07-21T08:26:22Z</time>
      </trkpt>
      <trkpt lat="45.02003" lon="6.63114">
        <ele>1616</ele>
        <time>2010-07-21T08:26:29Z</time>
      </trkpt>
      <trkpt lat="45.02001" lon="6.63062">
        <ele>1615</ele>
        <time>2010-07-21T08:26:36Z</time>
      </trkpt>
      <trkpt lat="45.02" lon="6.63049">
        <ele>1615</ele>
        <time>2010-07-21T08:26:38Z</time>
      </trkpt>
      <trkpt lat="45.02003" lon="6.63034">
        <ele>1615</ele>
        <time>2010-07-21T08:26:42Z</time>
      </trkpt>
      <trkpt lat="45.02008" lon="6.63035">
        <ele>1615</ele>
        <time>2010-07-21T08:26:44Z</time>
      </trkpt>
      <trkpt lat="45.02018" lon="6.63038">
        <ele>1616</ele>
        <time>2010-07-21T08:26:48Z</time>
      </trkpt>
      <trkpt lat="45.02024" lon="6.6304">
        <ele>1616</ele>
        <time>2010-07-21T08:26:51Z</time>
      </trkpt>
      <trkpt lat="45.0203" lon="6.63043">
        <ele>1616</ele>
        <time>2010-07-21T08:26:54Z</time>
      </trkpt>
      <trkpt lat="45.02032" lon="6.63045">
        <ele>1616</ele>
        <time>2010-07-21T08:26:55Z</time>
      </trkpt>
      <trkpt lat="45.02037" lon="6.63047">
        <ele>1617</ele>
        <time>2010-07-21T08:26:57Z</time>
      </trkpt>
      <trkpt lat="45.02051" lon="6.63056">
        <ele>1617</ele>
        <time>2010-07-21T08:27:04Z</time>
      </trkpt>
      <trkpt lat="45.02054" lon="6.63071">
        <ele>1618</ele>
        <time>2010-07-21T08:27:09Z</time>
      </trkpt>
      <trkpt lat="45.02056" lon="6.6308">
        <ele>1618</ele>
        <time>2010-07-21T08:27:12Z</time>
      </trkpt>
      <trkpt lat="45.02058" lon="6.63086">
        <ele>1619</ele>
        <time>2010-07-21T08:27:14Z</time>
      </trkpt>
      <trkpt lat="45.02067" lon="6.63113">
        <ele>1619</ele>
        <time>2010-07-21T08:27:23Z</time>
      </trkpt>
      <trkpt lat="45.02075" lon="6.63136">
        <ele>1620</ele>
        <time>2010-07-21T08:27:30Z</time>
      </trkpt>
      <trkpt lat="45.02078" lon="6.63153">
        <ele>1621</ele>
        <time>2010-07-21T08:27:35Z</time>
      </trkpt>
      <trkpt lat="45.02083" lon="6.63169">
        <ele>1623</ele>
        <time>2010-07-21T08:27:41Z</time>
      </trkpt>
      <trkpt lat="45.02091" lon="6.63185">
        <ele>1625</ele>
        <time>2010-07-21T08:27:48Z</time>
      </trkpt>
      <trkpt lat="45.02093" lon="6.63204">
        <ele>1626</ele>
        <time>2010-07-21T08:27:54Z</time>
      </trkpt>
      <trkpt lat="45.02096" lon="6.63221">
        <ele>1626</ele>
        <time>2010-07-21T08:27:59Z</time>
      </trkpt>
      <trkpt lat="45.02108" lon="6.63234">
        <ele>1627</ele>
        <time>2010-07-21T08:28:06Z</time>
      </trkpt>
      <trkpt lat="45.02123" lon="6.63236">
        <ele>1628</ele>
        <time>2010-07-21T08:28:13Z</time>
      </trkpt>
      <trkpt lat="45.02137" lon="6.63233">
        <ele>1628</ele>
        <time>2010-07-21T08:28:20Z</time>
      </trkpt>
      <trkpt lat="45.02149" lon="6.63237">
        <ele>1630</ele>
        <time>2010-07-21T08:28:27Z</time>
      </trkpt>
      <trkpt lat="45.02155" lon="6.63249">
        <ele>1631</ele>
        <time>2010-07-21T08:28:33Z</time>
      </trkpt>
      <trkpt lat="45.02155" lon="6.63267">
        <ele>1631</ele>
        <time>2010-07-21T08:28:40Z</time>
      </trkpt>
      <trkpt lat="45.02154" lon="6.63292">
        <ele>1631</ele>
        <time>2010-07-21T08:28:48Z</time>
      </trkpt>
      <trkpt lat="45.02156" lon="6.63321">
        <ele>1633</ele>
        <time>2010-07-21T08:28:57Z</time>
      </trkpt>
      <trkpt lat="45.0216" lon="6.63346">
        <ele>1633</ele>
        <time>2010-07-21T08:29:05Z</time>
      </trkpt>
      <trkpt lat="45.02167" lon="6.63355">
        <ele>1638</ele>
        <time>2010-07-21T08:29:10Z</time>
      </trkpt>
      <trkpt lat="45.02176" lon="6.63361">
        <ele>1638</ele>
        <time>2010-07-21T08:29:15Z</time>
      </trkpt>
      <trkpt lat="45.02189" lon="6.63375">
        <ele>1639</ele>
        <time>2010-07-21T08:29:23Z</time>
      </trkpt>
      <trkpt lat="45.02202" lon="6.63384">
        <ele>1640</ele>
        <time>2010-07-21T08:29:31Z</time>
      </trkpt>
      <trkpt lat="45.0221" lon="6.63387">
        <ele>1640</ele>
        <time>2010-07-21T08:29:36Z</time>
      </trkpt>
      <trkpt lat="45.02218" lon="6.63389">
        <ele>1641</ele>
        <time>2010-07-21T08:29:41Z</time>
      </trkpt>
      <trkpt lat="45.02232" lon="6.63394">
        <ele>1642</ele>
        <time>2010-07-21T08:29:50Z</time>
      </trkpt>
      <trkpt lat="45.02242" lon="6.6339">
        <ele>1642</ele>
        <time>2010-07-21T08:29:56Z</time>
      </trkpt>
      <trkpt lat="45.02249" lon="6.63386">
        <ele>1642</ele>
        <time>2010-07-21T08:30:01Z</time>
      </trkpt>
      <trkpt lat="45.02261" lon="6.63381">
        <ele>1648</ele>
        <time>2010-07-21T08:30:09Z</time>
      </trkpt>
      <trkpt lat="45.02275" lon="6.63376">
        <ele>1649</ele>
        <time>2010-07-21T08:30:18Z</time>
      </trkpt>
      <trkpt lat="45.02287" lon="6.63376">
        <ele>1650</ele>
        <time>2010-07-21T08:30:25Z</time>
      </trkpt>
      <trkpt lat="45.02302" lon="6.63386">
        <ele>1651</ele>
        <time>2010-07-21T08:30:35Z</time>
      </trkpt>
      <trkpt lat="45.02311" lon="6.634">
        <ele>1652</ele>
        <time>2010-07-21T08:30:44Z</time>
      </trkpt>
      <trkpt lat="45.02323" lon="6.63403">
        <ele>1653</ele>
        <time>2010-07-21T08:30:51Z</time>
      </trkpt>
      <trkpt lat="45.02338" lon="6.63408">
        <ele>1657</ele>
        <time>2010-07-21T08:30:59Z</time>
      </trkpt>
      <trkpt lat="45.02357" lon="6.63414">
        <ele>1659</ele>
        <time>2010-07-21T08:31:09Z</time>
      </trkpt>
      <trkpt lat="45.02371" lon="6.6342">
        <ele>1659</ele>
        <time>2010-07-21T08:31:17Z</time>
      </trkpt>
      <trkpt lat="45.02383" lon="6.63423">
        <ele>1660</ele>
        <time>2010-07-21T08:31:25Z</time>
      </trkpt>
      <trkpt lat="45.02394" lon="6.63422">
        <ele>1661</ele>
        <time>2010-07-21T08:31:31Z</time>
      </trkpt>
      <trkpt lat="45.02405" lon="6.63419">
        <ele>1663</ele>
        <time>2010-07-21T08:31:38Z</time>
      </trkpt>
      <trkpt lat="45.02416" lon="6.63417">
        <ele>1665</ele>
        <time>2010-07-21T08:31:45Z</time>
      </trkpt>
      <trkpt lat="45.02427" lon="6.63414">
        <ele>1668</ele>
        <time>2010-07-21T08:31:49Z</time>
      </trkpt>
      <trkpt lat="45.02439" lon="6.63411">
        <ele>1671</ele>
        <time>2010-07-21T08:31:53Z</time>
      </trkpt>
      <trkpt lat="45.02452" lon="6.63411">
        <ele>1672</ele>
        <time>2010-07-21T08:31:59Z</time>
      </trkpt>
      <trkpt lat="45.02462" lon="6.63412">
        <ele>1674</ele>
        <time>2010-07-21T08:32:05Z</time>
      </trkpt>
      <trkpt lat="45.02472" lon="6.63415">
        <ele>1675</ele>
        <time>2010-07-21T08:32:10Z</time>
      </trkpt>
      <trkpt lat="45.02483" lon="6.63416">
        <ele>1676</ele>
        <time>2010-07-21T08:32:16Z</time>
      </trkpt>
      <trkpt lat="45.0249" lon="6.63415">
        <ele>1677</ele>
        <time>2010-07-21T08:32:21Z</time>
      </trkpt>
      <trkpt lat="45.02497" lon="6.63413">
        <ele>1677</ele>
        <time>2010-07-21T08:32:25Z</time>
      </trkpt>
      <trkpt lat="45.02509" lon="6.6341">
        <ele>1682</ele>
        <time>2010-07-21T08:32:32Z</time>
      </trkpt>
      <trkpt lat="45.02522" lon="6.63406">
        <ele>1685</ele>
        <time>2010-07-21T08:32:40Z</time>
      </trkpt>
      <trkpt lat="45.02531" lon="6.63406">
        <ele>1686</ele>
        <time>2010-07-21T08:32:47Z</time>
      </trkpt>
      <trkpt lat="45.02543" lon="6.63403">
        <ele>1688</ele>
        <time>2010-07-21T08:32:54Z</time>
      </trkpt>
      <trkpt lat="45.02553" lon="6.63405">
        <ele>1688</ele>
        <time>2010-07-21T08:33:01Z</time>
      </trkpt>
      <trkpt lat="45.02563" lon="6.634">
        <ele>1689</ele>
        <time>2010-07-21T08:33:06Z</time>
      </trkpt>
      <trkpt lat="45.02563" lon="6.63402">
        <ele>1689</ele>
        <time>2010-07-21T08:33:11Z</time>
      </trkpt>
      <trkpt lat="45.02562" lon="6.634">
        <ele>1689</ele>
        <time>2010-07-21T08:33:20Z</time>
      </trkpt>
      <trkpt lat="45.02562" lon="6.63399">
        <ele>1689</ele>
        <time>2010-07-21T08:33:25Z</time>
      </trkpt>
      <trkpt lat="45.0256" lon="6.634">
        <ele>1689</ele>
        <time>2010-07-21T08:33:35Z</time>
      </trkpt>
      <trkpt lat="45.0256" lon="6.634">
        <ele>1689</ele>
        <time>2010-07-21T08:33:38Z</time>
      </trkpt>
      <trkpt lat="45.02559" lon="6.634">
        <ele>1689</ele>
        <time>2010-07-21T08:33:42Z</time>
      </trkpt>
      <trkpt lat="45.0256" lon="6.63401">
        <ele>1689</ele>
        <time>2010-07-21T08:33:51Z</time>
      </trkpt>
      <trkpt lat="45.0257" lon="6.63397">
        <ele>1690</ele>
        <time>2010-07-21T08:33:57Z</time>
      </trkpt>
      <trkpt lat="45.02573" lon="6.63396">
        <ele>1690</ele>
        <time>2010-07-21T08:33:59Z</time>
      </trkpt>
      <trkpt lat="45.02588" lon="6.63389">
        <ele>1700</ele>
        <time>2010-07-21T08:34:05Z</time>
      </trkpt>
      <trkpt lat="45.02595" lon="6.63385">
        <ele>1702</ele>
        <time>2010-07-21T08:34:10Z</time>
      </trkpt>
      <trkpt lat="45.02611" lon="6.63374">
        <ele>1705</ele>
        <time>2010-07-21T08:34:16Z</time>
      </trkpt>
      <trkpt lat="45.02617" lon="6.6337">
        <ele>1705</ele>
        <time>2010-07-21T08:34:19Z</time>
      </trkpt>
      <trkpt lat="45.02628" lon="6.63361">
        <ele>1707</ele>
        <time>2010-07-21T08:34:25Z</time>
      </trkpt>
      <trkpt lat="45.02638" lon="6.63353">
        <ele>1709</ele>
        <time>2010-07-21T08:34:31Z</time>
      </trkpt>
      <trkpt lat="45.02648" lon="6.6334">
        <ele>1711</ele>
        <time>2010-07-21T08:34:37Z</time>
      </trkpt>
      <trkpt lat="45.0265" lon="6.63338">
        <ele>1711</ele>
        <time>2010-07-21T08:34:39Z</time>
      </trkpt>
      <trkpt lat="45.02656" lon="6.63333">
        <ele>1716</ele>
        <time>2010-07-21T08:34:43Z</time>
      </trkpt>
      <trkpt lat="45.0266" lon="6.6333">
        <ele>1716</ele>
        <time>2010-07-21T08:34:45Z</time>
      </trkpt>
      <trkpt lat="45.02666" lon="6.63322">
        <ele>1716</ele>
        <time>2010-07-21T08:34:49Z</time>
      </trkpt>
      <trkpt lat="45.02668" lon="6.6332">
        <ele>1720</ele>
        <time>2010-07-21T08:34:51Z</time>
      </trkpt>
      <trkpt lat="45.02674" lon="6.63312">
        <ele>1722</ele>
        <time>2010-07-21T08:34:56Z</time>
      </trkpt>
      <trkpt lat="45.02683" lon="6.63303">
        <ele>1724</ele>
        <time>2010-07-21T08:35:03Z</time>
      </trkpt>
      <trkpt lat="45.0269" lon="6.63291">
        <ele>1725</ele>
        <time>2010-07-21T08:35:09Z</time>
      </trkpt>
      <trkpt lat="45.02698" lon="6.63282">
        <ele>1726</ele>
        <time>2010-07-21T08:35:16Z</time>
      </trkpt>
      <trkpt lat="45.02704" lon="6.63274">
        <ele>1726</ele>
        <time>2010-07-21T08:35:22Z</time>
      </trkpt>
      <trkpt lat="45.02713" lon="6.6327">
        <ele>1727</ele>
        <time>2010-07-21T08:35:28Z</time>
      </trkpt>
      <trkpt lat="45.02726" lon="6.63266">
        <ele>1727</ele>
        <time>2010-07-21T08:35:36Z</time>
      </trkpt>
      <trkpt lat="45.02739" lon="6.63265">
        <ele>1728</ele>
        <time>2010-07-21T08:35:44Z</time>
      </trkpt>
      <trkpt lat="45.0275" lon="6.63267">
        <ele>1736</ele>
        <time>2010-07-21T08:35:52Z</time>
      </trkpt>
      <trkpt lat="45.0276" lon="6.6327">
        <ele>1738</ele>
        <time>2010-07-21T08:35:59Z</time>
      </trkpt>
      <trkpt lat="45.0276" lon="6.63271">
        <ele>1738</ele>
        <time>2010-07-21T08:36:00Z</time>
      </trkpt>
      <trkpt lat="45.02764" lon="6.63269">
        <ele>1739</ele>
        <time>2010-07-21T08:36:03Z</time>
      </trkpt>
      <trkpt lat="45.02771" lon="6.63265">
        <ele>1739</ele>
        <time>2010-07-21T08:36:08Z</time>
      </trkpt>
      <trkpt lat="45.02781" lon="6.63262">
        <ele>1741</ele>
        <time>2010-07-21T08:36:14Z</time>
      </trkpt>
      <trkpt lat="45.0279" lon="6.6326">
        <ele>1743</ele>
        <time>2010-07-21T08:36:19Z</time>
      </trkpt>
      <trkpt lat="45.02805" lon="6.63258">
        <ele>1745</ele>
        <time>2010-07-21T08:36:27Z</time>
      </trkpt>
      <trkpt lat="45.02819" lon="6.63256">
        <ele>1745</ele>
        <time>2010-07-21T08:36:35Z</time>
      </trkpt>
      <trkpt lat="45.02828" lon="6.6326">
        <ele>1745</ele>
        <time>2010-07-21T08:36:41Z</time>
      </trkpt>
      <trkpt lat="45.02841" lon="6.63259">
        <ele>1754</ele>
        <time>2010-07-21T08:36:49Z</time>
      </trkpt>
      <trkpt lat="45.02858" lon="6.63254">
        <ele>1761</ele>
        <time>2010-07-21T08:36:57Z</time>
      </trkpt>
      <trkpt lat="45.02863" lon="6.63249">
        <ele>1750</ele>
        <time>2010-07-21T08:37:01Z</time>
      </trkpt>
      <trkpt lat="45.02873" lon="6.63239">
        <ele>1751</ele>
        <time>2010-07-21T08:37:08Z</time>
      </trkpt>
      <trkpt lat="45.02878" lon="6.63228">
        <ele>1751</ele>
        <time>2010-07-21T08:37:14Z</time>
      </trkpt>
      <trkpt lat="45.02884" lon="6.6322">
        <ele>1752</ele>
        <time>2010-07-21T08:37:21Z</time>
      </trkpt>
      <trkpt lat="45.02893" lon="6.63218">
        <ele>1752</ele>
        <time>2010-07-21T08:37:28Z</time>
      </trkpt>
      <trkpt lat="45.02902" lon="6.63212">
        <ele>1752</ele>
        <time>2010-07-21T08:37:35Z</time>
      </trkpt>
      <trkpt lat="45.02903" lon="6.63212">
        <ele>1752</ele>
        <time>2010-07-21T08:37:36Z</time>
      </trkpt>
      <trkpt lat="45.02913" lon="6.63214">
        <ele>1752</ele>
        <time>2010-07-21T08:37:43Z</time>
      </trkpt>
      <trkpt lat="45.0292" lon="6.63212">
        <ele>1755</ele>
        <time>2010-07-21T08:37:48Z</time>
      </trkpt>
      <trkpt lat="45.02926" lon="6.6321">
        <ele>1756</ele>
        <time>2010-07-21T08:37:54Z</time>
      </trkpt>
      <trkpt lat="45.02928" lon="6.63207">
        <ele>1756</ele>
        <time>2010-07-21T08:37:57Z</time>
      </trkpt>
      <trkpt lat="45.02932" lon="6.63199">
        <ele>1756</ele>
        <time>2010-07-21T08:38:02Z</time>
      </trkpt>
      <trkpt lat="45.02935" lon="6.63196">
        <ele>1756</ele>
        <time>2010-07-21T08:38:04Z</time>
      </trkpt>
      <trkpt lat="45.02943" lon="6.63194">
        <ele>1756</ele>
        <time>2010-07-21T08:38:12Z</time>
      </trkpt>
      <trkpt lat="45.02943" lon="6.63196">
        <ele>1756</ele>
        <time>2010-07-21T08:38:13Z</time>
      </trkpt>
      <trkpt lat="45.02949" lon="6.63199">
        <ele>1756</ele>
        <time>2010-07-21T08:38:17Z</time>
      </trkpt>
      <trkpt lat="45.02953" lon="6.63201">
        <ele>1757</ele>
        <time>2010-07-21T08:38:21Z</time>
      </trkpt>
      <trkpt lat="45.02964" lon="6.63207">
        <ele>1758</ele>
        <time>2010-07-21T08:38:29Z</time>
      </trkpt>
      <trkpt lat="45.02968" lon="6.63209">
        <ele>1758</ele>
        <time>2010-07-21T08:38:32Z</time>
      </trkpt>
      <trkpt lat="45.02973" lon="6.63213">
        <ele>1759</ele>
        <time>2010-07-21T08:38:39Z</time>
      </trkpt>
      <trkpt lat="45.02979" lon="6.63208">
        <ele>1758</ele>
        <time>2010-07-21T08:38:43Z</time>
      </trkpt>
      <trkpt lat="45.02985" lon="6.63206">
        <ele>1758</ele>
        <time>2010-07-21T08:38:46Z</time>
      </trkpt>
      <trkpt lat="45.03011" lon="6.63177">
        <ele>1759</ele>
        <time>2010-07-21T08:38:52Z</time>
      </trkpt>
      <trkpt lat="45.03024" lon="6.63172">
        <ele>1761</ele>
        <time>2010-07-21T08:38:57Z</time>
      </trkpt>
      <trkpt lat="45.03031" lon="6.63173">
        <ele>1762</ele>
        <time>2010-07-21T08:39:00Z</time>
      </trkpt>
      <trkpt lat="45.03051" lon="6.63176">
        <ele>1763</ele>
        <time>2010-07-21T08:39:07Z</time>
      </trkpt>
      <trkpt lat="45.03064" lon="6.6318">
        <ele>1763</ele>
        <time>2010-07-21T08:39:13Z</time>
      </trkpt>
      <trkpt lat="45.03076" lon="6.63188">
        <ele>1764</ele>
        <time>2010-07-21T08:39:19Z</time>
      </trkpt>
      <trkpt lat="45.03083" lon="6.63194">
        <ele>1765</ele>
        <time>2010-07-21T08:39:24Z</time>
      </trkpt>
      <trkpt lat="45.03084" lon="6.63187">
        <ele>1768</ele>
        <time>2010-07-21T08:39:33Z</time>
      </trkpt>
      <trkpt lat="45.0308" lon="6.63183">
        <ele>1763</ele>
        <time>2010-07-21T08:39:44Z</time>
      </trkpt>
      <trkpt lat="45.03076" lon="6.63187">
        <ele>1764</ele>
        <time>2010-07-21T08:39:52Z</time>
      </trkpt>
      <trkpt lat="45.03077" lon="6.63191">
        <ele>1765</ele>
        <time>2010-07-21T08:39:57Z</time>
      </trkpt>
      <trkpt lat="45.0308" lon="6.63192">
        <ele>1765</ele>
        <time>2010-07-21T08:40:01Z</time>
      </trkpt>
      <trkpt lat="45.03082" lon="6.63193">
        <ele>1765</ele>
        <time>2010-07-21T08:40:02Z</time>
      </trkpt>
      <trkpt lat="45.03086" lon="6.63193">
        <ele>1770</ele>
        <time>2010-07-21T08:40:04Z</time>
      </trkpt>
      <trkpt lat="45.0309" lon="6.63191">
        <ele>1770</ele>
        <time>2010-07-21T08:40:10Z</time>
      </trkpt>
      <trkpt lat="45.0309" lon="6.63189">
        <ele>1769</ele>
        <time>2010-07-21T08:40:15Z</time>
      </trkpt>
      <trkpt lat="45.0309" lon="6.63191">
        <ele>1770</ele>
        <time>2010-07-21T08:40:22Z</time>
      </trkpt>
      <trkpt lat="45.03085" lon="6.63182">
        <ele>1766</ele>
        <time>2010-07-21T08:40:37Z</time>
      </trkpt>
      <trkpt lat="45.03087" lon="6.63178">
        <ele>1765</ele>
        <time>2010-07-21T08:40:44Z</time>
      </trkpt>
      <trkpt lat="45.0308" lon="6.63176">
        <ele>1761</ele>
        <time>2010-07-21T08:40:53Z</time>
      </trkpt>
      <trkpt lat="45.03079" lon="6.63183">
        <ele>1763</ele>
        <time>2010-07-21T08:41:08Z</time>
      </trkpt>
      <trkpt lat="45.03083" lon="6.63196">
        <ele>1766</ele>
        <time>2010-07-21T08:41:17Z</time>
      </trkpt>
      <trkpt lat="45.03084" lon="6.63201">
        <ele>1772</ele>
        <time>2010-07-21T08:41:20Z</time>
      </trkpt>
      <trkpt lat="45.03085" lon="6.63203">
        <ele>1772</ele>
        <time>2010-07-21T08:41:22Z</time>
      </trkpt>
      <trkpt lat="45.03085" lon="6.63203">
        <ele>1773</ele>
        <time>2010-07-21T08:41:23Z</time>
      </trkpt>
      <trkpt lat="45.03087" lon="6.63208">
        <ele>1774</ele>
        <time>2010-07-21T08:41:28Z</time>
      </trkpt>
      <trkpt lat="45.0308" lon="6.63204">
        <ele>1768</ele>
        <time>2010-07-21T08:41:37Z</time>
      </trkpt>
      <trkpt lat="45.03084" lon="6.63206">
        <ele>1773</ele>
        <time>2010-07-21T08:41:43Z</time>
      </trkpt>
      <trkpt lat="45.03091" lon="6.6321">
        <ele>1774</ele>
        <time>2010-07-21T08:41:47Z</time>
      </trkpt>
      <trkpt lat="45.03098" lon="6.63208">
        <ele>1774</ele>
        <time>2010-07-21T08:41:51Z</time>
      </trkpt>
      <trkpt lat="45.03102" lon="6.63208">
        <ele>1774</ele>
        <time>2010-07-21T08:41:54Z</time>
      </trkpt>
      <trkpt lat="45.03103" lon="6.63207">
        <ele>1774</ele>
        <time>2010-07-21T08:41:55Z</time>
      </trkpt>
      <trkpt lat="45.03109" lon="6.63209">
        <ele>1775</ele>
        <time>2010-07-21T08:42:00Z</time>
      </trkpt>
      <trkpt lat="45.0312" lon="6.63211">
        <ele>1775</ele>
        <time>2010-07-21T08:42:06Z</time>
      </trkpt>
      <trkpt lat="45.03124" lon="6.6321">
        <ele>1775</ele>
        <time>2010-07-21T08:42:08Z</time>
      </trkpt>
      <trkpt lat="45.03131" lon="6.63207">
        <ele>1775</ele>
        <time>2010-07-21T08:42:14Z</time>
      </trkpt>
      <trkpt lat="45.03133" lon="6.63208">
        <ele>1776</ele>
        <time>2010-07-21T08:42:15Z</time>
      </trkpt>
      <trkpt lat="45.0314" lon="6.63214">
        <ele>1776</ele>
        <time>2010-07-21T08:42:23Z</time>
      </trkpt>
      <trkpt lat="45.0315" lon="6.63216">
        <ele>1777</ele>
        <time>2010-07-21T08:42:29Z</time>
      </trkpt>
      <trkpt lat="45.03158" lon="6.63216">
        <ele>1777</ele>
        <time>2010-07-21T08:42:33Z</time>
      </trkpt>
      <trkpt lat="45.03167" lon="6.6322">
        <ele>1786</ele>
        <time>2010-07-21T08:42:39Z</time>
      </trkpt>
      <trkpt lat="45.03169" lon="6.63223">
        <ele>1786</ele>
        <time>2010-07-21T08:42:42Z</time>
      </trkpt>
      <trkpt lat="45.03172" lon="6.63224">
        <ele>1786</ele>
        <time>2010-07-21T08:42:50Z</time>
      </trkpt>
      <trkpt lat="45.03174" lon="6.63224">
        <ele>1786</ele>
        <time>2010-07-21T08:42:52Z</time>
      </trkpt>
      <trkpt lat="45.03183" lon="6.63225">
        <ele>1787</ele>
        <time>2010-07-21T08:42:59Z</time>
      </trkpt>
      <trkpt lat="45.03187" lon="6.63226">
        <ele>1787</ele>
        <time>2010-07-21T08:43:02Z</time>
      </trkpt>
      <trkpt lat="45.03192" lon="6.63231">
        <ele>1788</ele>
        <time>2010-07-21T08:43:08Z</time>
      </trkpt>
      <trkpt lat="45.03195" lon="6.63234">
        <ele>1788</ele>
        <time>2010-07-21T08:43:11Z</time>
      </trkpt>
      <trkpt lat="45.03202" lon="6.63236">
        <ele>1790</ele>
        <time>2010-07-21T08:43:17Z</time>
      </trkpt>
      <trkpt lat="45.03211" lon="6.63241">
        <ele>1791</ele>
        <time>2010-07-21T08:43:24Z</time>
      </trkpt>
      <trkpt lat="45.03216" lon="6.63244">
        <ele>1792</ele>
        <time>2010-07-21T08:43:29Z</time>
      </trkpt>
      <trkpt lat="45.03217" lon="6.63246">
        <ele>1793</ele>
        <time>2010-07-21T08:43:32Z</time>
      </trkpt>
      <trkpt lat="45.03228" lon="6.63255">
        <ele>1809</ele>
        <time>2010-07-21T08:43:41Z</time>
      </trkpt>
      <trkpt lat="45.03239" lon="6.63264">
        <ele>1809</ele>
        <time>2010-07-21T08:43:48Z</time>
      </trkpt>
      <trkpt lat="45.03248" lon="6.63273">
        <ele>1811</ele>
        <time>2010-07-21T08:43:55Z</time>
      </trkpt>
      <trkpt lat="45.03252" lon="6.63275">
        <ele>1816</ele>
        <time>2010-07-21T08:43:58Z</time>
      </trkpt>
      <trkpt lat="45.03254" lon="6.6328">
        <ele>1817</ele>
        <time>2010-07-21T08:44:02Z</time>
      </trkpt>
      <trkpt lat="45.03258" lon="6.63286">
        <ele>1819</ele>
        <time>2010-07-21T08:44:08Z</time>
      </trkpt>
      <trkpt lat="45.03259" lon="6.6329">
        <ele>1820</ele>
        <time>2010-07-21T08:44:10Z</time>
      </trkpt>
      <trkpt lat="45.03269" lon="6.63295">
        <ele>1821</ele>
        <time>2010-07-21T08:44:16Z</time>
      </trkpt>
      <trkpt lat="45.03274" lon="6.63297">
        <ele>1821</ele>
        <time>2010-07-21T08:44:19Z</time>
      </trkpt>
      <trkpt lat="45.03278" lon="6.63302">
        <ele>1822</ele>
        <time>2010-07-21T08:44:27Z</time>
      </trkpt>
      <trkpt lat="45.03278" lon="6.63301">
        <ele>1822</ele>
        <time>2010-07-21T08:44:29Z</time>
      </trkpt>
      <trkpt lat="45.03282" lon="6.63311">
        <ele>1822</ele>
        <time>2010-07-21T08:44:34Z</time>
      </trkpt>
      <trkpt lat="45.03287" lon="6.63318">
        <ele>1823</ele>
        <time>2010-07-21T08:44:39Z</time>
      </trkpt>
      <trkpt lat="45.03288" lon="6.6332">
        <ele>1823</ele>
        <time>2010-07-21T08:44:41Z</time>
      </trkpt>
      <trkpt lat="45.03293" lon="6.63324">
        <ele>1823</ele>
        <time>2010-07-21T08:44:47Z</time>
      </trkpt>
      <trkpt lat="45.03294" lon="6.63326">
        <ele>1823</ele>
        <time>2010-07-21T08:44:48Z</time>
      </trkpt>
      <trkpt lat="45.03302" lon="6.63331">
        <ele>1823</ele>
        <time>2010-07-21T08:44:54Z</time>
      </trkpt>
      <trkpt lat="45.03311" lon="6.63323">
        <ele>1822</ele>
        <time>2010-07-21T08:44:58Z</time>
      </trkpt>
      <trkpt lat="45.0332" lon="6.63317">
        <ele>1822</ele>
        <time>2010-07-21T08:45:04Z</time>
      </trkpt>
      <trkpt lat="45.03324" lon="6.6331">
        <ele>1823</ele>
        <time>2010-07-21T08:45:13Z</time>
      </trkpt>
      <trkpt lat="45.03327" lon="6.63303">
        <ele>1823</ele>
        <time>2010-07-21T08:45:21Z</time>
      </trkpt>
      <trkpt lat="45.03331" lon="6.63302">
        <ele>1823</ele>
        <time>2010-07-21T08:45:30Z</time>
      </trkpt>
      <trkpt lat="45.03325" lon="6.63309">
        <ele>1823</ele>
        <time>2010-07-21T08:45:42Z</time>
      </trkpt>
      <trkpt lat="45.03318" lon="6.63318">
        <ele>1822</ele>
        <time>2010-07-21T08:45:54Z</time>
      </trkpt>
      <trkpt lat="45.03322" lon="6.63319">
        <ele>1822</ele>
        <time>2010-07-21T08:46:01Z</time>
      </trkpt>
      <trkpt lat="45.0332" lon="6.63327">
        <ele>1822</ele>
        <time>2010-07-21T08:46:08Z</time>
      </trkpt>
      <trkpt lat="45.03319" lon="6.6333">
        <ele>1822</ele>
        <time>2010-07-21T08:46:12Z</time>
      </trkpt>
      <trkpt lat="45.0332" lon="6.63334">
        <ele>1831</ele>
        <time>2010-07-21T08:46:17Z</time>
      </trkpt>
      <trkpt lat="45.03322" lon="6.63341">
        <ele>1832</ele>
        <time>2010-07-21T08:46:31Z</time>
      </trkpt>
      <trkpt lat="45.0333" lon="6.63341">
        <ele>1829</ele>
        <time>2010-07-21T08:46:43Z</time>
      </trkpt>
      <trkpt lat="45.03331" lon="6.63341">
        <ele>1829</ele>
        <time>2010-07-21T08:46:46Z</time>
      </trkpt>
      <trkpt lat="45.03335" lon="6.63347">
        <ele>1831</ele>
        <time>2010-07-21T08:46:55Z</time>
      </trkpt>
      <trkpt lat="45.03348" lon="6.63342">
        <ele>1831</ele>
        <time>2010-07-21T08:47:51Z</time>
      </trkpt>
      <trkpt lat="45.03346" lon="6.63342">
        <ele>1831</ele>
        <time>2010-07-21T08:48:02Z</time>
      </trkpt>
      <trkpt lat="45.03343" lon="6.63335">
        <ele>1828</ele>
        <time>2010-07-21T08:48:09Z</time>
      </trkpt>
      <trkpt lat="45.03343" lon="6.63325">
        <ele>1824</ele>
        <time>2010-07-21T08:48:21Z</time>
      </trkpt>
      <trkpt lat="45.03337" lon="6.63318">
        <ele>1825</ele>
        <time>2010-07-21T08:48:26Z</time>
      </trkpt>
      <trkpt lat="45.03303" lon="6.63309">
        <ele>1822</ele>
        <time>2010-07-21T08:48:32Z</time>
      </trkpt>
      <trkpt lat="45.03275" lon="6.63302">
        <ele>1822</ele>
        <time>2010-07-21T08:48:35Z</time>
      </trkpt>
      <trkpt lat="45.03252" lon="6.6329">
        <ele>1820</ele>
        <time>2010-07-21T08:48:38Z</time>
      </trkpt>
      <trkpt lat="45.03213" lon="6.63251">
        <ele>1808</ele>
        <time>2010-07-21T08:48:43Z</time>
      </trkpt>
      <trkpt lat="45.03185" lon="6.63227">
        <ele>1787</ele>
        <time>2010-07-21T08:48:46Z</time>
      </trkpt>
      <trkpt lat="45.03165" lon="6.63219">
        <ele>1778</ele>
        <time>2010-07-21T08:48:48Z</time>
      </trkpt>
      <trkpt lat="45.03129" lon="6.6321">
        <ele>1776</ele>
        <time>2010-07-21T08:48:53Z</time>
      </trkpt>
      <trkpt lat="45.03111" lon="6.63206">
        <ele>1774</ele>
        <time>2010-07-21T08:48:56Z</time>
      </trkpt>
      <trkpt lat="45.031" lon="6.63193">
        <ele>1771</ele>
        <time>2010-07-21T08:49:00Z</time>
      </trkpt>
      <trkpt lat="45.03104" lon="6.63189">
        <ele>1771</ele>
        <time>2010-07-21T08:49:04Z</time>
      </trkpt>
      <trkpt lat="45.03103" lon="6.63187">
        <ele>1770</ele>
        <time>2010-07-21T08:49:08Z</time>
      </trkpt>
      <trkpt lat="45.03108" lon="6.6318">
        <ele>1770</ele>
        <time>2010-07-21T08:49:18Z</time>
      </trkpt>
      <trkpt lat="45.03109" lon="6.63175">
        <ele>1770</ele>
        <time>2010-07-21T08:49:35Z</time>
      </trkpt>
      <trkpt lat="45.03102" lon="6.63168">
        <ele>1767</ele>
        <time>2010-07-21T08:49:41Z</time>
      </trkpt>
      <trkpt lat="45.03105" lon="6.63163">
        <ele>1766</ele>
        <time>2010-07-21T08:49:44Z</time>
      </trkpt>
      <trkpt lat="45.03109" lon="6.63162">
        <ele>1767</ele>
        <time>2010-07-21T08:49:46Z</time>
      </trkpt>
      <trkpt lat="45.03115" lon="6.63169">
        <ele>1770</ele>
        <time>2010-07-21T08:49:51Z</time>
      </trkpt>
      <trkpt lat="45.03116" lon="6.63172">
        <ele>1771</ele>
        <time>2010-07-21T08:49:52Z</time>
      </trkpt>
      <trkpt lat="45.03117" lon="6.63178">
        <ele>1771</ele>
        <time>2010-07-21T08:49:56Z</time>
      </trkpt>
      <trkpt lat="45.03116" lon="6.63172">
        <ele>1771</ele>
        <time>2010-07-21T08:50:00Z</time>
      </trkpt>
      <trkpt lat="45.03115" lon="6.63169">
        <ele>1770</ele>
        <time>2010-07-21T08:50:05Z</time>
      </trkpt>
      <trkpt lat="45.03117" lon="6.63162">
        <ele>1768</ele>
        <time>2010-07-21T08:50:10Z</time>
      </trkpt>
      <trkpt lat="45.0312" lon="6.63152">
        <ele>1769</ele>
        <time>2010-07-21T08:50:16Z</time>
      </trkpt>
      <trkpt lat="45.03121" lon="6.63151">
        <ele>1769</ele>
        <time>2010-07-21T08:50:17Z</time>
      </trkpt>
      <trkpt lat="45.03123" lon="6.63149">
        <ele>1770</ele>
        <time>2010-07-21T08:50:22Z</time>
      </trkpt>
      <trkpt lat="45.03124" lon="6.63155">
        <ele>1769</ele>
        <time>2010-07-21T08:50:26Z</time>
      </trkpt>
      <trkpt lat="45.03126" lon="6.63163">
        <ele>1770</ele>
        <time>2010-07-21T08:50:31Z</time>
      </trkpt>
      <trkpt lat="45.03127" lon="6.63168">
        <ele>1772</ele>
        <time>2010-07-21T08:50:35Z</time>
      </trkpt>
      <trkpt lat="45.03131" lon="6.63169">
        <ele>1773</ele>
        <time>2010-07-21T08:50:41Z</time>
      </trkpt>
      <trkpt lat="45.03133" lon="6.63166">
        <ele>1770</ele>
        <time>2010-07-21T08:50:52Z</time>
      </trkpt>
      <trkpt lat="45.03133" lon="6.63159">
        <ele>1770</ele>
        <time>2010-07-21T08:50:57Z</time>
      </trkpt>
      <trkpt lat="45.03136" lon="6.6315">
        <ele>1771</ele>
        <time>2010-07-21T08:51:02Z</time>
      </trkpt>
      <trkpt lat="45.03139" lon="6.63151">
        <ele>1771</ele>
        <time>2010-07-21T08:51:06Z</time>
      </trkpt>
      <trkpt lat="45.03141" lon="6.63155">
        <ele>1771</ele>
        <time>2010-07-21T08:51:08Z</time>
      </trkpt>
      <trkpt lat="45.03147" lon="6.63165">
        <ele>1772</ele>
        <time>2010-07-21T08:51:16Z</time>
      </trkpt>
      <trkpt lat="45.03149" lon="6.63167">
        <ele>1774</ele>
        <time>2010-07-21T08:51:19Z</time>
      </trkpt>
      <trkpt lat="45.0315" lon="6.6317">
        <ele>1774</ele>
        <time>2010-07-21T08:51:21Z</time>
      </trkpt>
      <trkpt lat="45.03152" lon="6.63172">
        <ele>1774</ele>
        <time>2010-07-21T08:51:24Z</time>
      </trkpt>
      <trkpt lat="45.03153" lon="6.63161">
        <ele>1772</ele>
        <time>2010-07-21T08:51:31Z</time>
      </trkpt>
      <trkpt lat="45.03156" lon="6.63161">
        <ele>1773</ele>
        <time>2010-07-21T08:51:35Z</time>
      </trkpt>
      <trkpt lat="45.03157" lon="6.63162">
        <ele>1773</ele>
        <time>2010-07-21T08:51:36Z</time>
      </trkpt>
      <trkpt lat="45.03163" lon="6.63172">
        <ele>1774</ele>
        <time>2010-07-21T08:51:45Z</time>
      </trkpt>
      <trkpt lat="45.03164" lon="6.63169">
        <ele>1774</ele>
        <time>2010-07-21T08:51:59Z</time>
      </trkpt>
      <trkpt lat="45.03167" lon="6.63164">
        <ele>1774</ele>
        <time>2010-07-21T08:52:04Z</time>
      </trkpt>
      <trkpt lat="45.03169" lon="6.63165">
        <ele>1775</ele>
        <time>2010-07-21T08:52:08Z</time>
      </trkpt>
      <trkpt lat="45.03171" lon="6.63168">
        <ele>1777</ele>
        <time>2010-07-21T08:52:12Z</time>
      </trkpt>
      <trkpt lat="45.03174" lon="6.63171">
        <ele>1778</ele>
        <time>2010-07-21T08:52:18Z</time>
      </trkpt>
      <trkpt lat="45.03178" lon="6.63174">
        <ele>1780</ele>
        <time>2010-07-21T08:52:25Z</time>
      </trkpt>
      <trkpt lat="45.03183" lon="6.63171">
        <ele>1781</ele>
        <time>2010-07-21T08:52:33Z</time>
      </trkpt>
      <trkpt lat="45.03186" lon="6.63167">
        <ele>1782</ele>
        <time>2010-07-21T08:52:39Z</time>
      </trkpt>
      <trkpt lat="45.0319" lon="6.6317">
        <ele>1783</ele>
        <time>2010-07-21T08:52:45Z</time>
      </trkpt>
      <trkpt lat="45.03194" lon="6.63168">
        <ele>1784</ele>
        <time>2010-07-21T08:52:51Z</time>
      </trkpt>
      <trkpt lat="45.03199" lon="6.63169">
        <ele>1785</ele>
        <time>2010-07-21T08:52:57Z</time>
      </trkpt>
      <trkpt lat="45.03202" lon="6.63168">
        <ele>1786</ele>
        <time>2010-07-21T08:53:03Z</time>
      </trkpt>
      <trkpt lat="45.03204" lon="6.6317">
        <ele>1786</ele>
        <time>2010-07-21T08:53:09Z</time>
      </trkpt>
      <trkpt lat="45.03208" lon="6.63172">
        <ele>1787</ele>
        <time>2010-07-21T08:53:16Z</time>
      </trkpt>
      <trkpt lat="45.0321" lon="6.63173">
        <ele>1787</ele>
        <time>2010-07-21T08:53:20Z</time>
      </trkpt>
      <trkpt lat="45.03219" lon="6.63175">
        <ele>1789</ele>
        <time>2010-07-21T08:53:28Z</time>
      </trkpt>
      <trkpt lat="45.03225" lon="6.63178">
        <ele>1790</ele>
        <time>2010-07-21T08:53:35Z</time>
      </trkpt>
      <trkpt lat="45.03231" lon="6.63181">
        <ele>1790</ele>
        <time>2010-07-21T08:53:41Z</time>
      </trkpt>
      <trkpt lat="45.03236" lon="6.63183">
        <ele>1791</ele>
        <time>2010-07-21T08:53:48Z</time>
      </trkpt>
      <trkpt lat="45.03241" lon="6.63186">
        <ele>1791</ele>
        <time>2010-07-21T08:53:55Z</time>
      </trkpt>
      <trkpt lat="45.03248" lon="6.63189">
        <ele>1792</ele>
        <time>2010-07-21T08:54:02Z</time>
      </trkpt>
      <trkpt lat="45.03253" lon="6.63193">
        <ele>1805</ele>
        <time>2010-07-21T08:54:09Z</time>
      </trkpt>
      <trkpt lat="45.03255" lon="6.63196">
        <ele>1806</ele>
        <time>2010-07-21T08:54:15Z</time>
      </trkpt>
      <trkpt lat="45.03254" lon="6.63196">
        <ele>1806</ele>
        <time>2010-07-21T08:54:24Z</time>
      </trkpt>
      <trkpt lat="45.03252" lon="6.63194">
        <ele>1806</ele>
        <time>2010-07-21T08:54:34Z</time>
      </trkpt>
      <trkpt lat="45.03253" lon="6.63196">
        <ele>1806</ele>
        <time>2010-07-21T08:54:40Z</time>
      </trkpt>
      <trkpt lat="45.0325" lon="6.63202">
        <ele>1792</ele>
        <time>2010-07-21T08:54:46Z</time>
      </trkpt>
      <trkpt lat="45.03251" lon="6.63203">
        <ele>1807</ele>
        <time>2010-07-21T08:54:53Z</time>
      </trkpt>
      <trkpt lat="45.03257" lon="6.6321">
        <ele>1808</ele>
        <time>2010-07-21T08:55:11Z</time>
      </trkpt>
      <trkpt lat="45.0326" lon="6.6321">
        <ele>1809</ele>
        <time>2010-07-21T08:55:15Z</time>
      </trkpt>
      <trkpt lat="45.03263" lon="6.63208">
        <ele>1809</ele>
        <time>2010-07-21T08:55:26Z</time>
      </trkpt>
      <trkpt lat="45.03263" lon="6.63208">
        <ele>1809</ele>
        <time>2010-07-21T08:55:35Z</time>
      </trkpt>
      <trkpt lat="45.03262" lon="6.63208">
        <ele>1809</ele>
        <time>2010-07-21T08:55:54Z</time>
      </trkpt>
      <trkpt lat="45.03271" lon="6.63206">
        <ele>1810</ele>
        <time>2010-07-21T08:56:11Z</time>
      </trkpt>
      <trkpt lat="45.03274" lon="6.63206">
        <ele>1810</ele>
        <time>2010-07-21T08:56:38Z</time>
      </trkpt>
      <trkpt lat="45.0327" lon="6.63211">
        <ele>1810</ele>
        <time>2010-07-21T08:57:03Z</time>
      </trkpt>
      <trkpt lat="45.03269" lon="6.63211">
        <ele>1810</ele>
        <time>2010-07-21T08:57:09Z</time>
      </trkpt>
      <trkpt lat="45.03269" lon="6.63212">
        <ele>1810</ele>
        <time>2010-07-21T08:57:11Z</time>
      </trkpt>
      <trkpt lat="45.03272" lon="6.63216">
        <ele>1810</ele>
        <time>2010-07-21T08:57:18Z</time>
      </trkpt>
      <trkpt lat="45.03277" lon="6.63223">
        <ele>1811</ele>
        <time>2010-07-21T08:57:26Z</time>
      </trkpt>
      <trkpt lat="45.03283" lon="6.63233">
        <ele>1812</ele>
        <time>2010-07-21T08:57:32Z</time>
      </trkpt>
      <trkpt lat="45.03288" lon="6.63241">
        <ele>1814</ele>
        <time>2010-07-21T08:57:37Z</time>
      </trkpt>
      <trkpt lat="45.03294" lon="6.63249">
        <ele>1815</ele>
        <time>2010-07-21T08:57:42Z</time>
      </trkpt>
      <trkpt lat="45.03294" lon="6.6325">
        <ele>1815</ele>
        <time>2010-07-21T08:57:43Z</time>
      </trkpt>
      <trkpt lat="45.03301" lon="6.63254">
        <ele>1822</ele>
        <time>2010-07-21T08:57:49Z</time>
      </trkpt>
      <trkpt lat="45.03303" lon="6.63257">
        <ele>1822</ele>
        <time>2010-07-21T08:57:51Z</time>
      </trkpt>
      <trkpt lat="45.03307" lon="6.63258">
        <ele>1823</ele>
        <time>2010-07-21T08:57:56Z</time>
      </trkpt>
      <trkpt lat="45.03309" lon="6.63259">
        <ele>1823</ele>
        <time>2010-07-21T08:57:58Z</time>
      </trkpt>
      <trkpt lat="45.03314" lon="6.63264">
        <ele>1824</ele>
        <time>2010-07-21T08:58:03Z</time>
      </trkpt>
      <trkpt lat="45.03315" lon="6.63264">
        <ele>1824</ele>
        <time>2010-07-21T08:58:04Z</time>
      </trkpt>
      <trkpt lat="45.03319" lon="6.63271">
        <ele>1824</ele>
        <time>2010-07-21T08:58:08Z</time>
      </trkpt>
      <trkpt lat="45.03321" lon="6.63273">
        <ele>1824</ele>
        <time>2010-07-21T08:58:12Z</time>
      </trkpt>
      <trkpt lat="45.03321" lon="6.63268">
        <ele>1824</ele>
        <time>2010-07-21T08:58:16Z</time>
      </trkpt>
      <trkpt lat="45.03318" lon="6.63259">
        <ele>1825</ele>
        <time>2010-07-21T08:58:23Z</time>
      </trkpt>
      <trkpt lat="45.03319" lon="6.63264">
        <ele>1825</ele>
        <time>2010-07-21T08:58:29Z</time>
      </trkpt>
      <trkpt lat="45.03322" lon="6.63262">
        <ele>1825</ele>
        <time>2010-07-21T08:58:41Z</time>
      </trkpt>
      <trkpt lat="45.03329" lon="6.63265">
        <ele>1826</ele>
        <time>2010-07-21T08:58:48Z</time>
      </trkpt>
      <trkpt lat="45.03335" lon="6.63265">
        <ele>1829</ele>
        <time>2010-07-21T08:58:53Z</time>
      </trkpt>
      <trkpt lat="45.03338" lon="6.63264">
        <ele>1829</ele>
        <time>2010-07-21T08:58:59Z</time>
      </trkpt>
      <trkpt lat="45.03335" lon="6.63264">
        <ele>1829</ele>
        <time>2010-07-21T08:59:05Z</time>
      </trkpt>
      <trkpt lat="45.03334" lon="6.63265">
        <ele>1829</ele>
        <time>2010-07-21T08:59:09Z</time>
      </trkpt>
      <trkpt lat="45.03334" lon="6.63265">
        <ele>1829</ele>
        <time>2010-07-21T08:59:12Z</time>
      </trkpt>
      <trkpt lat="45.03334" lon="6.63263">
        <ele>1829</ele>
        <time>2010-07-21T08:59:17Z</time>
      </trkpt>
      <trkpt lat="45.03334" lon="6.6326">
        <ele>1829</ele>
        <time>2010-07-21T08:59:26Z</time>
      </trkpt>
      <trkpt lat="45.03334" lon="6.63259">
        <ele>1829</ele>
        <time>2010-07-21T08:59:28Z</time>
      </trkpt>
      <trkpt lat="45.03335" lon="6.63257">
        <ele>1829</ele>
        <time>2010-07-21T08:59:36Z</time>
      </trkpt>
      <trkpt lat="45.03335" lon="6.63255">
        <ele>1830</ele>
        <time>2010-07-21T08:59:51Z</time>
      </trkpt>
      <trkpt lat="45.03341" lon="6.63257">
        <ele>1829</ele>
        <time>2010-07-21T08:59:56Z</time>
      </trkpt>
      <trkpt lat="45.03349" lon="6.63258">
        <ele>1829</ele>
        <time>2010-07-21T09:00:01Z</time>
      </trkpt>
      <trkpt lat="45.03362" lon="6.63261">
        <ele>1829</ele>
        <time>2010-07-21T09:00:07Z</time>
      </trkpt>
      <trkpt lat="45.03375" lon="6.63267">
        <ele>1829</ele>
        <time>2010-07-21T09:00:12Z</time>
      </trkpt>
      <trkpt lat="45.03375" lon="6.63271">
        <ele>1829</ele>
        <time>2010-07-21T09:00:15Z</time>
      </trkpt>
      <trkpt lat="45.03377" lon="6.63284">
        <ele>1828</ele>
        <time>2010-07-21T09:00:33Z</time>
      </trkpt>
      <trkpt lat="45.03388" lon="6.6328">
        <ele>1829</ele>
        <time>2010-07-21T09:00:39Z</time>
      </trkpt>
      <trkpt lat="45.03397" lon="6.63278">
        <ele>1829</ele>
        <time>2010-07-21T09:00:44Z</time>
      </trkpt>
      <trkpt lat="45.03405" lon="6.63277">
        <ele>1829</ele>
        <time>2010-07-21T09:00:48Z</time>
      </trkpt>
      <trkpt lat="45.03407" lon="6.63269">
        <ele>1830</ele>
        <time>2010-07-21T09:01:06Z</time>
      </trkpt>
      <trkpt lat="45.03416" lon="6.63268">
        <ele>1830</ele>
        <time>2010-07-21T09:01:10Z</time>
      </trkpt>
      <trkpt lat="45.03437" lon="6.63267">
        <ele>1836</ele>
        <time>2010-07-21T09:01:15Z</time>
      </trkpt>
      <trkpt lat="45.03441" lon="6.63267">
        <ele>1836</ele>
        <time>2010-07-21T09:01:16Z</time>
      </trkpt>
      <trkpt lat="45.03455" lon="6.63275">
        <ele>1837</ele>
        <time>2010-07-21T09:01:22Z</time>
      </trkpt>
      <trkpt lat="45.03463" lon="6.63277">
        <ele>1838</ele>
        <time>2010-07-21T09:01:27Z</time>
      </trkpt>
      <trkpt lat="45.0347" lon="6.63279">
        <ele>1838</ele>
        <time>2010-07-21T09:01:31Z</time>
      </trkpt>
      <trkpt lat="45.03476" lon="6.6328">
        <ele>1839</ele>
        <time>2010-07-21T09:01:34Z</time>
      </trkpt>
      <trkpt lat="45.03493" lon="6.63283">
        <ele>1840</ele>
        <time>2010-07-21T09:01:40Z</time>
      </trkpt>
      <trkpt lat="45.03503" lon="6.63283">
        <ele>1850</ele>
        <time>2010-07-21T09:01:45Z</time>
      </trkpt>
      <trkpt lat="45.03513" lon="6.63286">
        <ele>1850</ele>
        <time>2010-07-21T09:01:51Z</time>
      </trkpt>
      <trkpt lat="45.03519" lon="6.63284">
        <ele>1850</ele>
        <time>2010-07-21T09:01:55Z</time>
      </trkpt>
      <trkpt lat="45.03525" lon="6.63283">
        <ele>1851</ele>
        <time>2010-07-21T09:01:59Z</time>
      </trkpt>
      <trkpt lat="45.0353" lon="6.63282">
        <ele>1852</ele>
        <time>2010-07-21T09:02:02Z</time>
      </trkpt>
      <trkpt lat="45.03533" lon="6.63281">
        <ele>1852</ele>
        <time>2010-07-21T09:02:04Z</time>
      </trkpt>
      <trkpt lat="45.0354" lon="6.63279">
        <ele>1853</ele>
        <time>2010-07-21T09:02:10Z</time>
      </trkpt>
      <trkpt lat="45.0355" lon="6.63276">
        <ele>1854</ele>
        <time>2010-07-21T09:02:17Z</time>
      </trkpt>
      <trkpt lat="45.03554" lon="6.63277">
        <ele>1855</ele>
        <time>2010-07-21T09:02:21Z</time>
      </trkpt>
      <trkpt lat="45.0356" lon="6.63276">
        <ele>1855</ele>
        <time>2010-07-21T09:02:26Z</time>
      </trkpt>
      <trkpt lat="45.03568" lon="6.63275">
        <ele>1856</ele>
        <time>2010-07-21T09:02:31Z</time>
      </trkpt>
      <trkpt lat="45.03576" lon="6.63274">
        <ele>1857</ele>
        <time>2010-07-21T09:02:36Z</time>
      </trkpt>
      <trkpt lat="45.03586" lon="6.63274">
        <ele>1868</ele>
        <time>2010-07-21T09:02:43Z</time>
      </trkpt>
      <trkpt lat="45.03594" lon="6.63278">
        <ele>1869</ele>
        <time>2010-07-21T09:02:48Z</time>
      </trkpt>
      <trkpt lat="45.036" lon="6.63281">
        <ele>1869</ele>
        <time>2010-07-21T09:02:53Z</time>
      </trkpt>
      <trkpt lat="45.03608" lon="6.63285">
        <ele>1870</ele>
        <time>2010-07-21T09:02:59Z</time>
      </trkpt>
      <trkpt lat="45.03613" lon="6.63285">
        <ele>1870</ele>
        <time>2010-07-21T09:03:03Z</time>
      </trkpt>
      <trkpt lat="45.03623" lon="6.63284">
        <ele>1872</ele>
        <time>2010-07-21T09:03:09Z</time>
      </trkpt>
      <trkpt lat="45.03633" lon="6.63286">
        <ele>1873</ele>
        <time>2010-07-21T09:03:16Z</time>
      </trkpt>
      <trkpt lat="45.03642" lon="6.63285">
        <ele>1874</ele>
        <time>2010-07-21T09:03:24Z</time>
      </trkpt>
      <trkpt lat="45.03648" lon="6.63286">
        <ele>1875</ele>
        <time>2010-07-21T09:03:28Z</time>
      </trkpt>
      <trkpt lat="45.03655" lon="6.63298">
        <ele>1874</ele>
        <time>2010-07-21T09:03:36Z</time>
      </trkpt>
      <trkpt lat="45.03655" lon="6.63301">
        <ele>1873</ele>
        <time>2010-07-21T09:03:42Z</time>
      </trkpt>
      <trkpt lat="45.03654" lon="6.63305">
        <ele>1873</ele>
        <time>2010-07-21T09:03:47Z</time>
      </trkpt>
      <trkpt lat="45.0365" lon="6.63308">
        <ele>1872</ele>
        <time>2010-07-21T09:03:52Z</time>
      </trkpt>
      <trkpt lat="45.0365" lon="6.6331">
        <ele>1872</ele>
        <time>2010-07-21T09:03:59Z</time>
      </trkpt>
      <trkpt lat="45.03652" lon="6.63312">
        <ele>1872</ele>
        <time>2010-07-21T09:04:05Z</time>
      </trkpt>
      <trkpt lat="45.03654" lon="6.63314">
        <ele>1872</ele>
        <time>2010-07-21T09:04:10Z</time>
      </trkpt>
      <trkpt lat="45.03654" lon="6.63316">
        <ele>1872</ele>
        <time>2010-07-21T09:04:15Z</time>
      </trkpt>
      <trkpt lat="45.03656" lon="6.63318">
        <ele>1872</ele>
        <time>2010-07-21T09:04:21Z</time>
      </trkpt>
      <trkpt lat="45.03657" lon="6.6332">
        <ele>1872</ele>
        <time>2010-07-21T09:04:25Z</time>
      </trkpt>
      <trkpt lat="45.03657" lon="6.63322">
        <ele>1872</ele>
        <time>2010-07-21T09:04:33Z</time>
      </trkpt>
      <trkpt lat="45.03657" lon="6.63324">
        <ele>1872</ele>
        <time>2010-07-21T09:04:44Z</time>
      </trkpt>
      <trkpt lat="45.0366" lon="6.63326">
        <ele>1872</ele>
        <time>2010-07-21T09:04:54Z</time>
      </trkpt>
      <trkpt lat="45.03661" lon="6.63328">
        <ele>1872</ele>
        <time>2010-07-21T09:05:15Z</time>
      </trkpt>
      <trkpt lat="45.03661" lon="6.63329">
        <ele>1872</ele>
        <time>2010-07-21T09:05:38Z</time>
      </trkpt>
      <trkpt lat="45.03664" lon="6.63332">
        <ele>1872</ele>
        <time>2010-07-21T09:05:59Z</time>
      </trkpt>
      <trkpt lat="45.03664" lon="6.63332">
        <ele>1872</ele>
        <time>2010-07-21T09:06:06Z</time>
      </trkpt>
      <trkpt lat="45.0366" lon="6.63327">
        <ele>1872</ele>
        <time>2010-07-21T09:06:29Z</time>
      </trkpt>
      <trkpt lat="45.03647" lon="6.63319">
        <ele>1871</ele>
        <time>2010-07-21T09:06:57Z</time>
      </trkpt>
      <trkpt lat="45.03643" lon="6.63316">
        <ele>1871</ele>
        <time>2010-07-21T09:07:11Z</time>
      </trkpt>
      <trkpt lat="45.03646" lon="6.63315">
        <ele>1872</ele>
        <time>2010-07-21T09:07:19Z</time>
      </trkpt>
      <trkpt lat="45.03654" lon="6.63311">
        <ele>1872</ele>
        <time>2010-07-21T09:07:29Z</time>
      </trkpt>
      <trkpt lat="45.03661" lon="6.63314">
        <ele>1872</ele>
        <time>2010-07-21T09:07:39Z</time>
      </trkpt>
      <trkpt lat="45.0366" lon="6.63312">
        <ele>1873</ele>
        <time>2010-07-21T09:07:51Z</time>
      </trkpt>
      <trkpt lat="45.03651" lon="6.63315">
        <ele>1872</ele>
        <time>2010-07-21T09:08:04Z</time>
      </trkpt>
      <trkpt lat="45.03645" lon="6.63321">
        <ele>1871</ele>
        <time>2010-07-21T09:08:13Z</time>
      </trkpt>
      <trkpt lat="45.03643" lon="6.6331">
        <ele>1872</ele>
        <time>2010-07-21T09:08:23Z</time>
      </trkpt>
      <trkpt lat="45.0365" lon="6.63304">
        <ele>1873</ele>
        <time>2010-07-21T09:08:39Z</time>
      </trkpt>
      <trkpt lat="45.03651" lon="6.63307">
        <ele>1872</ele>
        <time>2010-07-21T09:08:47Z</time>
      </trkpt>
      <trkpt lat="45.03652" lon="6.63308">
        <ele>1872</ele>
        <time>2010-07-21T09:08:49Z</time>
      </trkpt>
      <trkpt lat="45.03655" lon="6.63317">
        <ele>1872</ele>
        <time>2010-07-21T09:09:06Z</time>
      </trkpt>
      <trkpt lat="45.03658" lon="6.63316">
        <ele>1872</ele>
        <time>2010-07-21T09:09:18Z</time>
      </trkpt>
      <trkpt lat="45.03658" lon="6.63317">
        <ele>1872</ele>
        <time>2010-07-21T09:09:26Z</time>
      </trkpt>
      <trkpt lat="45.0366" lon="6.63317">
        <ele>1872</ele>
        <time>2010-07-21T09:09:34Z</time>
      </trkpt>
      <trkpt lat="45.0366" lon="6.63318">
        <ele>1872</ele>
        <time>2010-07-21T09:09:40Z</time>
      </trkpt>
      <trkpt lat="45.03656" lon="6.63324">
        <ele>1872</ele>
        <time>2010-07-21T09:09:45Z</time>
      </trkpt>
      <trkpt lat="45.03655" lon="6.63336">
        <ele>1872</ele>
        <time>2010-07-21T09:09:50Z</time>
      </trkpt>
      <trkpt lat="45.03653" lon="6.63345">
        <ele>1873</ele>
        <time>2010-07-21T09:09:53Z</time>
      </trkpt>
      <trkpt lat="45.03651" lon="6.63363">
        <ele>1874</ele>
        <time>2010-07-21T09:10:01Z</time>
      </trkpt>
      <trkpt lat="45.03651" lon="6.63365">
        <ele>1874</ele>
        <time>2010-07-21T09:10:02Z</time>
      </trkpt>
      <trkpt lat="45.03651" lon="6.63371">
        <ele>1875</ele>
        <time>2010-07-21T09:10:06Z</time>
      </trkpt>
      <trkpt lat="45.03655" lon="6.63378">
        <ele>1877</ele>
        <time>2010-07-21T09:10:10Z</time>
      </trkpt>
      <trkpt lat="45.03657" lon="6.63379">
        <ele>1877</ele>
        <time>2010-07-21T09:10:15Z</time>
      </trkpt>
      <trkpt lat="45.0366" lon="6.63381">
        <ele>1878</ele>
        <time>2010-07-21T09:10:18Z</time>
      </trkpt>
      <trkpt lat="45.03664" lon="6.63382">
        <ele>1878</ele>
        <time>2010-07-21T09:10:22Z</time>
      </trkpt>
      <trkpt lat="45.03668" lon="6.63384">
        <ele>1891</ele>
        <time>2010-07-21T09:10:26Z</time>
      </trkpt>
      <trkpt lat="45.03677" lon="6.63383">
        <ele>1891</ele>
        <time>2010-07-21T09:10:33Z</time>
      </trkpt>
      <trkpt lat="45.03685" lon="6.63386">
        <ele>1892</ele>
        <time>2010-07-21T09:10:39Z</time>
      </trkpt>
      <trkpt lat="45.03693" lon="6.63386">
        <ele>1892</ele>
        <time>2010-07-21T09:10:46Z</time>
      </trkpt>
      <trkpt lat="45.03697" lon="6.63385">
        <ele>1893</ele>
        <time>2010-07-21T09:10:50Z</time>
      </trkpt>
      <trkpt lat="45.03699" lon="6.63385">
        <ele>1893</ele>
        <time>2010-07-21T09:10:52Z</time>
      </trkpt>
      <trkpt lat="45.03704" lon="6.63386">
        <ele>1893</ele>
        <time>2010-07-21T09:10:56Z</time>
      </trkpt>
      <trkpt lat="45.03712" lon="6.63391">
        <ele>1895</ele>
        <time>2010-07-21T09:11:03Z</time>
      </trkpt>
      <trkpt lat="45.03711" lon="6.63398">
        <ele>1895</ele>
        <time>2010-07-21T09:11:08Z</time>
      </trkpt>
      <trkpt lat="45.03708" lon="6.634">
        <ele>1895</ele>
        <time>2010-07-21T09:11:11Z</time>
      </trkpt>
      <trkpt lat="45.03697" lon="6.63405">
        <ele>1894</ele>
        <time>2010-07-21T09:11:19Z</time>
      </trkpt>
      <trkpt lat="45.03685" lon="6.63406">
        <ele>1893</ele>
        <time>2010-07-21T09:11:25Z</time>
      </trkpt>
      <trkpt lat="45.03673" lon="6.63409">
        <ele>1893</ele>
        <time>2010-07-21T09:11:31Z</time>
      </trkpt>
      <trkpt lat="45.03667" lon="6.63412">
        <ele>1894</ele>
        <time>2010-07-21T09:11:36Z</time>
      </trkpt>
      <trkpt lat="45.03654" lon="6.63416">
        <ele>1886</ele>
        <time>2010-07-21T09:11:44Z</time>
      </trkpt>
      <trkpt lat="45.03643" lon="6.63424">
        <ele>1892</ele>
        <time>2010-07-21T09:11:50Z</time>
      </trkpt>
      <trkpt lat="45.03637" lon="6.63432">
        <ele>1891</ele>
        <time>2010-07-21T09:11:56Z</time>
      </trkpt>
      <trkpt lat="45.03636" lon="6.63434">
        <ele>1891</ele>
        <time>2010-07-21T09:11:58Z</time>
      </trkpt>
      <trkpt lat="45.03633" lon="6.6344">
        <ele>1891</ele>
        <time>2010-07-21T09:12:04Z</time>
      </trkpt>
      <trkpt lat="45.03631" lon="6.63442">
        <ele>1891</ele>
        <time>2010-07-21T09:12:12Z</time>
      </trkpt>
      <trkpt lat="45.03633" lon="6.63443">
        <ele>1891</ele>
        <time>2010-07-21T09:12:22Z</time>
      </trkpt>
      <trkpt lat="45.03636" lon="6.63444">
        <ele>1892</ele>
        <time>2010-07-21T09:12:24Z</time>
      </trkpt>
      <trkpt lat="45.03639" lon="6.63444">
        <ele>1892</ele>
        <time>2010-07-21T09:12:31Z</time>
      </trkpt>
      <trkpt lat="45.03646" lon="6.63445">
        <ele>1893</ele>
        <time>2010-07-21T09:12:42Z</time>
      </trkpt>
      <trkpt lat="45.03647" lon="6.63445">
        <ele>1893</ele>
        <time>2010-07-21T09:12:45Z</time>
      </trkpt>
      <trkpt lat="45.03648" lon="6.63445">
        <ele>1893</ele>
        <time>2010-07-21T09:12:50Z</time>
      </trkpt>
      <trkpt lat="45.03647" lon="6.63443">
        <ele>1893</ele>
        <time>2010-07-21T09:13:12Z</time>
      </trkpt>
      <trkpt lat="45.0364" lon="6.63443">
        <ele>1892</ele>
        <time>2010-07-21T09:13:45Z</time>
      </trkpt>
      <trkpt lat="45.03639" lon="6.63443">
        <ele>1892</ele>
        <time>2010-07-21T09:13:48Z</time>
      </trkpt>
      <trkpt lat="45.03639" lon="6.63443">
        <ele>1892</ele>
        <time>2010-07-21T09:13:49Z</time>
      </trkpt>
      <trkpt lat="45.03634" lon="6.63438">
        <ele>1891</ele>
        <time>2010-07-21T09:14:48Z</time>
      </trkpt>
      <trkpt lat="45.03636" lon="6.63445">
        <ele>1892</ele>
        <time>2010-07-21T09:14:52Z</time>
      </trkpt>
      <trkpt lat="45.03637" lon="6.63461">
        <ele>1894</ele>
        <time>2010-07-21T09:14:58Z</time>
      </trkpt>
      <trkpt lat="45.03642" lon="6.63475">
        <ele>1897</ele>
        <time>2010-07-21T09:15:04Z</time>
      </trkpt>
      <trkpt lat="45.03645" lon="6.63485">
        <ele>1899</ele>
        <time>2010-07-21T09:15:08Z</time>
      </trkpt>
      <trkpt lat="45.03645" lon="6.63495">
        <ele>1901</ele>
        <time>2010-07-21T09:15:12Z</time>
      </trkpt>
      <trkpt lat="45.03648" lon="6.6351">
        <ele>1910</ele>
        <time>2010-07-21T09:15:18Z</time>
      </trkpt>
      <trkpt lat="45.03649" lon="6.63516">
        <ele>1911</ele>
        <time>2010-07-21T09:15:22Z</time>
      </trkpt>
      <trkpt lat="45.03651" lon="6.63518">
        <ele>1911</ele>
        <time>2010-07-21T09:15:25Z</time>
      </trkpt>
      <trkpt lat="45.03656" lon="6.63513">
        <ele>1911</ele>
        <time>2010-07-21T09:15:32Z</time>
      </trkpt>
      <trkpt lat="45.03661" lon="6.63517">
        <ele>1912</ele>
        <time>2010-07-21T09:15:44Z</time>
      </trkpt>
      <trkpt lat="45.03662" lon="6.63517">
        <ele>1912</ele>
        <time>2010-07-21T09:15:51Z</time>
      </trkpt>
      <trkpt lat="45.03663" lon="6.63512">
        <ele>1912</ele>
        <time>2010-07-21T09:15:55Z</time>
      </trkpt>
      <trkpt lat="45.03666" lon="6.63497">
        <ele>1912</ele>
        <time>2010-07-21T09:16:02Z</time>
      </trkpt>
      <trkpt lat="45.03666" lon="6.63485">
        <ele>1904</ele>
        <time>2010-07-21T09:16:07Z</time>
      </trkpt>
      <trkpt lat="45.03666" lon="6.63473">
        <ele>1900</ele>
        <time>2010-07-21T09:16:12Z</time>
      </trkpt>
      <trkpt lat="45.03665" lon="6.63471">
        <ele>1899</ele>
        <time>2010-07-21T09:16:13Z</time>
      </trkpt>
      <trkpt lat="45.03666" lon="6.6347">
        <ele>1899</ele>
        <time>2010-07-21T09:16:15Z</time>
      </trkpt>
      <trkpt lat="45.03667" lon="6.63483">
        <ele>1913</ele>
        <time>2010-07-21T09:16:22Z</time>
      </trkpt>
      <trkpt lat="45.03673" lon="6.63492">
        <ele>1914</ele>
        <time>2010-07-21T09:16:29Z</time>
      </trkpt>
      <trkpt lat="45.03678" lon="6.63499">
        <ele>1914</ele>
        <time>2010-07-21T09:16:35Z</time>
      </trkpt>
      <trkpt lat="45.03685" lon="6.63509">
        <ele>1926</ele>
        <time>2010-07-21T09:16:40Z</time>
      </trkpt>
      <trkpt lat="45.03687" lon="6.63515">
        <ele>1927</ele>
        <time>2010-07-21T09:16:43Z</time>
      </trkpt>
      <trkpt lat="45.03685" lon="6.63522">
        <ele>1928</ele>
        <time>2010-07-21T09:16:47Z</time>
      </trkpt>
      <trkpt lat="45.03685" lon="6.63523">
        <ele>1928</ele>
        <time>2010-07-21T09:16:51Z</time>
      </trkpt>
      <trkpt lat="45.0369" lon="6.63517">
        <ele>1928</ele>
        <time>2010-07-21T09:16:57Z</time>
      </trkpt>
      <trkpt lat="45.03692" lon="6.63518">
        <ele>1929</ele>
        <time>2010-07-21T09:16:59Z</time>
      </trkpt>
      <trkpt lat="45.03699" lon="6.63514">
        <ele>1930</ele>
        <time>2010-07-21T09:17:04Z</time>
      </trkpt>
      <trkpt lat="45.03704" lon="6.63512">
        <ele>1931</ele>
        <time>2010-07-21T09:17:08Z</time>
      </trkpt>
      <trkpt lat="45.03708" lon="6.63517">
        <ele>1932</ele>
        <time>2010-07-21T09:17:15Z</time>
      </trkpt>
      <trkpt lat="45.0371" lon="6.63522">
        <ele>1933</ele>
        <time>2010-07-21T09:17:18Z</time>
      </trkpt>
      <trkpt lat="45.03711" lon="6.63526">
        <ele>1934</ele>
        <time>2010-07-21T09:17:21Z</time>
      </trkpt>
      <trkpt lat="45.03718" lon="6.63526">
        <ele>1935</ele>
        <time>2010-07-21T09:17:25Z</time>
      </trkpt>
      <trkpt lat="45.03723" lon="6.63521">
        <ele>1935</ele>
        <time>2010-07-21T09:17:30Z</time>
      </trkpt>
      <trkpt lat="45.0373" lon="6.63515">
        <ele>1936</ele>
        <time>2010-07-21T09:17:37Z</time>
      </trkpt>
      <trkpt lat="45.03736" lon="6.63513">
        <ele>1937</ele>
        <time>2010-07-21T09:17:44Z</time>
      </trkpt>
      <trkpt lat="45.03739" lon="6.63514">
        <ele>1937</ele>
        <time>2010-07-21T09:17:50Z</time>
      </trkpt>
      <trkpt lat="45.03742" lon="6.63512">
        <ele>1937</ele>
        <time>2010-07-21T09:18:04Z</time>
      </trkpt>
      <trkpt lat="45.03744" lon="6.63511">
        <ele>1938</ele>
        <time>2010-07-21T09:18:12Z</time>
      </trkpt>
      <trkpt lat="45.03747" lon="6.6351">
        <ele>1938</ele>
        <time>2010-07-21T09:18:21Z</time>
      </trkpt>
      <trkpt lat="45.03749" lon="6.63512">
        <ele>1938</ele>
        <time>2010-07-21T09:18:26Z</time>
      </trkpt>
      <trkpt lat="45.0375" lon="6.63512">
        <ele>1938</ele>
        <time>2010-07-21T09:18:30Z</time>
      </trkpt>
      <trkpt lat="45.0375" lon="6.63511">
        <ele>1947</ele>
        <time>2010-07-21T09:18:35Z</time>
      </trkpt>
      <trkpt lat="45.03751" lon="6.63511">
        <ele>1947</ele>
        <time>2010-07-21T09:18:40Z</time>
      </trkpt>
      <trkpt lat="45.03751" lon="6.63511">
        <ele>1947</ele>
        <time>2010-07-21T09:18:50Z</time>
      </trkpt>
      <trkpt lat="45.03751" lon="6.6351">
        <ele>1947</ele>
        <time>2010-07-21T09:18:58Z</time>
      </trkpt>
      <trkpt lat="45.03751" lon="6.6351">
        <ele>1946</ele>
        <time>2010-07-21T09:19:09Z</time>
      </trkpt>
      <trkpt lat="45.0375" lon="6.6351">
        <ele>1947</ele>
        <time>2010-07-21T09:19:18Z</time>
      </trkpt>
      <trkpt lat="45.03751" lon="6.63519">
        <ele>1951</ele>
        <time>2010-07-21T09:19:47Z</time>
      </trkpt>
      <trkpt lat="45.0375" lon="6.63519">
        <ele>1938</ele>
        <time>2010-07-21T09:20:24Z</time>
      </trkpt>
      <trkpt lat="45.03751" lon="6.63509">
        <ele>1946</ele>
        <time>2010-07-21T09:21:02Z</time>
      </trkpt>
      <trkpt lat="45.03751" lon="6.63507">
        <ele>1945</ele>
        <time>2010-07-21T09:21:22Z</time>
      </trkpt>
      <trkpt lat="45.03752" lon="6.63507">
        <ele>1945</ele>
        <time>2010-07-21T09:21:26Z</time>
      </trkpt>
      <trkpt lat="45.03744" lon="6.63507">
        <ele>1938</ele>
        <time>2010-07-21T09:22:05Z</time>
      </trkpt>
      <trkpt lat="45.03747" lon="6.63508">
        <ele>1938</ele>
        <time>2010-07-21T09:22:09Z</time>
      </trkpt>
      <trkpt lat="45.03743" lon="6.6352">
        <ele>1938</ele>
        <time>2010-07-21T09:22:13Z</time>
      </trkpt>
      <trkpt lat="45.0374" lon="6.63528">
        <ele>1938</ele>
        <time>2010-07-21T09:22:16Z</time>
      </trkpt>
      <trkpt lat="45.03739" lon="6.63534">
        <ele>1938</ele>
        <time>2010-07-21T09:22:19Z</time>
      </trkpt>
      <trkpt lat="45.03736" lon="6.63542">
        <ele>1939</ele>
        <time>2010-07-21T09:22:22Z</time>
      </trkpt>
      <trkpt lat="45.03735" lon="6.63544">
        <ele>1939</ele>
        <time>2010-07-21T09:22:23Z</time>
      </trkpt>
      <trkpt lat="45.03734" lon="6.63551">
        <ele>1941</ele>
        <time>2010-07-21T09:22:27Z</time>
      </trkpt>
      <trkpt lat="45.03731" lon="6.6356">
        <ele>1942</ele>
        <time>2010-07-21T09:22:31Z</time>
      </trkpt>
      <trkpt lat="45.0373" lon="6.63569">
        <ele>1944</ele>
        <time>2010-07-21T09:22:35Z</time>
      </trkpt>
      <trkpt lat="45.03731" lon="6.63578">
        <ele>1946</ele>
        <time>2010-07-21T09:22:40Z</time>
      </trkpt>
      <trkpt lat="45.03735" lon="6.63584">
        <ele>1956</ele>
        <time>2010-07-21T09:22:44Z</time>
      </trkpt>
      <trkpt lat="45.03742" lon="6.63591">
        <ele>1957</ele>
        <time>2010-07-21T09:22:52Z</time>
      </trkpt>
      <trkpt lat="45.03746" lon="6.63592">
        <ele>1958</ele>
        <time>2010-07-21T09:22:56Z</time>
      </trkpt>
      <trkpt lat="45.0375" lon="6.63594">
        <ele>1958</ele>
        <time>2010-07-21T09:23:00Z</time>
      </trkpt>
      <trkpt lat="45.03755" lon="6.63594">
        <ele>1969</ele>
        <time>2010-07-21T09:23:05Z</time>
      </trkpt>
      <trkpt lat="45.03766" lon="6.63601">
        <ele>1975</ele>
        <time>2010-07-21T09:23:14Z</time>
      </trkpt>
      <trkpt lat="45.03767" lon="6.63602">
        <ele>1975</ele>
        <time>2010-07-21T09:23:15Z</time>
      </trkpt>
      <trkpt lat="45.03773" lon="6.63605">
        <ele>1977</ele>
        <time>2010-07-21T09:23:19Z</time>
      </trkpt>
      <trkpt lat="45.03777" lon="6.63601">
        <ele>1978</ele>
        <time>2010-07-21T09:23:25Z</time>
      </trkpt>
      <trkpt lat="45.03776" lon="6.63593">
        <ele>1976</ele>
        <time>2010-07-21T09:23:32Z</time>
      </trkpt>
      <trkpt lat="45.03778" lon="6.63588">
        <ele>1977</ele>
        <time>2010-07-21T09:23:36Z</time>
      </trkpt>
      <trkpt lat="45.03778" lon="6.63583">
        <ele>1964</ele>
        <time>2010-07-21T09:23:42Z</time>
      </trkpt>
      <trkpt lat="45.03783" lon="6.6358">
        <ele>1965</ele>
        <time>2010-07-21T09:23:49Z</time>
      </trkpt>
      <trkpt lat="45.03786" lon="6.63576">
        <ele>1965</ele>
        <time>2010-07-21T09:23:54Z</time>
      </trkpt>
      <trkpt lat="45.0379" lon="6.63573">
        <ele>1966</ele>
        <time>2010-07-21T09:23:57Z</time>
      </trkpt>
      <trkpt lat="45.03799" lon="6.63568">
        <ele>1968</ele>
        <time>2010-07-21T09:24:06Z</time>
      </trkpt>
      <trkpt lat="45.03808" lon="6.63563">
        <ele>1969</ele>
        <time>2010-07-21T09:24:14Z</time>
      </trkpt>
      <trkpt lat="45.03812" lon="6.63559">
        <ele>1970</ele>
        <time>2010-07-21T09:24:21Z</time>
      </trkpt>
      <trkpt lat="45.0381" lon="6.63565">
        <ele>1970</ele>
        <time>2010-07-21T09:24:26Z</time>
      </trkpt>
      <trkpt lat="45.03806" lon="6.63571">
        <ele>1971</ele>
        <time>2010-07-21T09:24:32Z</time>
      </trkpt>
      <trkpt lat="45.03804" lon="6.63574">
        <ele>1970</ele>
        <time>2010-07-21T09:24:38Z</time>
      </trkpt>
      <trkpt lat="45.03809" lon="6.63577">
        <ele>1973</ele>
        <time>2010-07-21T09:24:51Z</time>
      </trkpt>
      <trkpt lat="45.03811" lon="6.6358">
        <ele>1974</ele>
        <time>2010-07-21T09:24:58Z</time>
      </trkpt>
      <trkpt lat="45.03814" lon="6.63581">
        <ele>1975</ele>
        <time>2010-07-21T09:25:04Z</time>
      </trkpt>
      <trkpt lat="45.03815" lon="6.63581">
        <ele>1976</ele>
        <time>2010-07-21T09:25:08Z</time>
      </trkpt>
      <trkpt lat="45.03814" lon="6.6358">
        <ele>1975</ele>
        <time>2010-07-21T09:25:15Z</time>
      </trkpt>
      <trkpt lat="45.03814" lon="6.63579">
        <ele>1975</ele>
        <time>2010-07-21T09:25:20Z</time>
      </trkpt>
      <trkpt lat="45.03815" lon="6.63578">
        <ele>1976</ele>
        <time>2010-07-21T09:25:26Z</time>
      </trkpt>
      <trkpt lat="45.03817" lon="6.63576">
        <ele>1977</ele>
        <time>2010-07-21T09:25:35Z</time>
      </trkpt>
      <trkpt lat="45.03814" lon="6.63577">
        <ele>1975</ele>
        <time>2010-07-21T09:25:46Z</time>
      </trkpt>
      <trkpt lat="45.03813" lon="6.63577">
        <ele>1974</ele>
        <time>2010-07-21T09:25:52Z</time>
      </trkpt>
      <trkpt lat="45.03811" lon="6.63578">
        <ele>1974</ele>
        <time>2010-07-21T09:26:02Z</time>
      </trkpt>
      <trkpt lat="45.03812" lon="6.63579">
        <ele>1974</ele>
        <time>2010-07-21T09:26:22Z</time>
      </trkpt>
      <trkpt lat="45.03812" lon="6.63579">
        <ele>1974</ele>
        <time>2010-07-21T09:26:26Z</time>
      </trkpt>
      <trkpt lat="45.03814" lon="6.63581">
        <ele>1975</ele>
        <time>2010-07-21T09:26:49Z</time>
      </trkpt>
      <trkpt lat="45.03822" lon="6.63564">
        <ele>1973</ele>
        <time>2010-07-21T09:27:26Z</time>
      </trkpt>
      <trkpt lat="45.0382" lon="6.6356">
        <ele>1972</ele>
        <time>2010-07-21T09:27:39Z</time>
      </trkpt>
      <trkpt lat="45.03808" lon="6.63556">
        <ele>1968</ele>
        <time>2010-07-21T09:28:32Z</time>
      </trkpt>
      <trkpt lat="45.03798" lon="6.63564">
        <ele>1967</ele>
        <time>2010-07-21T09:28:42Z</time>
      </trkpt>
      <trkpt lat="45.03796" lon="6.63571">
        <ele>1968</ele>
        <time>2010-07-21T09:28:56Z</time>
      </trkpt>
      <trkpt lat="45.03802" lon="6.63575">
        <ele>1970</ele>
        <time>2010-07-21T09:29:07Z</time>
      </trkpt>
      <trkpt lat="45.03807" lon="6.6358">
        <ele>1972</ele>
        <time>2010-07-21T09:29:15Z</time>
      </trkpt>
      <trkpt lat="45.03809" lon="6.63582">
        <ele>1973</ele>
        <time>2010-07-21T09:29:33Z</time>
      </trkpt>
      <trkpt lat="45.03795" lon="6.63582">
        <ele>1968</ele>
        <time>2010-07-21T09:29:50Z</time>
      </trkpt>
      <trkpt lat="45.03787" lon="6.63584">
        <ele>1979</ele>
        <time>2010-07-21T09:29:58Z</time>
      </trkpt>
      <trkpt lat="45.03787" lon="6.63587">
        <ele>1979</ele>
        <time>2010-07-21T09:30:04Z</time>
      </trkpt>
      <trkpt lat="45.0379" lon="6.63594">
        <ele>1981</ele>
        <time>2010-07-21T09:30:08Z</time>
      </trkpt>
      <trkpt lat="45.03795" lon="6.63602">
        <ele>1982</ele>
        <time>2010-07-21T09:30:13Z</time>
      </trkpt>
      <trkpt lat="45.03802" lon="6.63605">
        <ele>1984</ele>
        <time>2010-07-21T09:30:17Z</time>
      </trkpt>
      <trkpt lat="45.03804" lon="6.63606">
        <ele>1985</ele>
        <time>2010-07-21T09:30:18Z</time>
      </trkpt>
      <trkpt lat="45.03807" lon="6.63615">
        <ele>1986</ele>
        <time>2010-07-21T09:30:22Z</time>
      </trkpt>
      <trkpt lat="45.03811" lon="6.63625">
        <ele>1987</ele>
        <time>2010-07-21T09:30:27Z</time>
      </trkpt>
      <trkpt lat="45.03813" lon="6.63633">
        <ele>1989</ele>
        <time>2010-07-21T09:30:31Z</time>
      </trkpt>
      <trkpt lat="45.03816" lon="6.63634">
        <ele>1989</ele>
        <time>2010-07-21T09:30:35Z</time>
      </trkpt>
      <trkpt lat="45.03816" lon="6.63638">
        <ele>1990</ele>
        <time>2010-07-21T09:30:42Z</time>
      </trkpt>
      <trkpt lat="45.03819" lon="6.63639">
        <ele>1991</ele>
        <time>2010-07-21T09:30:47Z</time>
      </trkpt>
      <trkpt lat="45.03823" lon="6.63635">
        <ele>1991</ele>
        <time>2010-07-21T09:30:54Z</time>
      </trkpt>
      <trkpt lat="45.03829" lon="6.63632">
        <ele>1991</ele>
        <time>2010-07-21T09:30:58Z</time>
      </trkpt>
      <trkpt lat="45.03836" lon="6.63622">
        <ele>2004</ele>
        <time>2010-07-21T09:31:08Z</time>
      </trkpt>
      <trkpt lat="45.03837" lon="6.63617">
        <ele>2003</ele>
        <time>2010-07-21T09:31:11Z</time>
      </trkpt>
      <trkpt lat="45.03843" lon="6.63612">
        <ele>2003</ele>
        <time>2010-07-21T09:31:18Z</time>
      </trkpt>
      <trkpt lat="45.03846" lon="6.63608">
        <ele>2002</ele>
        <time>2010-07-21T09:31:24Z</time>
      </trkpt>
      <trkpt lat="45.03848" lon="6.63608">
        <ele>2002</ele>
        <time>2010-07-21T09:31:29Z</time>
      </trkpt>
      <trkpt lat="45.03851" lon="6.6361">
        <ele>2003</ele>
        <time>2010-07-21T09:31:36Z</time>
      </trkpt>
      <trkpt lat="45.0385" lon="6.63607">
        <ele>2002</ele>
        <time>2010-07-21T09:31:46Z</time>
      </trkpt>
      <trkpt lat="45.03853" lon="6.63605">
        <ele>2002</ele>
        <time>2010-07-21T09:31:52Z</time>
      </trkpt>
      <trkpt lat="45.03857" lon="6.63602">
        <ele>2002</ele>
        <time>2010-07-21T09:31:58Z</time>
      </trkpt>
      <trkpt lat="45.03861" lon="6.63602">
        <ele>2003</ele>
        <time>2010-07-21T09:32:03Z</time>
      </trkpt>
      <trkpt lat="45.03864" lon="6.63604">
        <ele>2004</ele>
        <time>2010-07-21T09:32:08Z</time>
      </trkpt>
      <trkpt lat="45.03868" lon="6.63609">
        <ele>2005</ele>
        <time>2010-07-21T09:32:14Z</time>
      </trkpt>
      <trkpt lat="45.03869" lon="6.63616">
        <ele>2006</ele>
        <time>2010-07-21T09:32:20Z</time>
      </trkpt>
      <trkpt lat="45.03869" lon="6.63622">
        <ele>2007</ele>
        <time>2010-07-21T09:32:26Z</time>
      </trkpt>
      <trkpt lat="45.03867" lon="6.63628">
        <ele>2007</ele>
        <time>2010-07-21T09:32:32Z</time>
      </trkpt>
      <trkpt lat="45.03866" lon="6.63637">
        <ele>2008</ele>
        <time>2010-07-21T09:32:39Z</time>
      </trkpt>
      <trkpt lat="45.03862" lon="6.63645">
        <ele>2009</ele>
        <time>2010-07-21T09:32:46Z</time>
      </trkpt>
      <trkpt lat="45.0386" lon="6.63649">
        <ele>2009</ele>
        <time>2010-07-21T09:32:51Z</time>
      </trkpt>
      <trkpt lat="45.03869" lon="6.6365">
        <ele>2010</ele>
        <time>2010-07-21T09:33:06Z</time>
      </trkpt>
      <trkpt lat="45.0387" lon="6.63649">
        <ele>2010</ele>
        <time>2010-07-21T09:33:07Z</time>
      </trkpt>
      <trkpt lat="45.03875" lon="6.63643">
        <ele>2010</ele>
        <time>2010-07-21T09:33:11Z</time>
      </trkpt>
      <trkpt lat="45.03882" lon="6.63635">
        <ele>2010</ele>
        <time>2010-07-21T09:33:17Z</time>
      </trkpt>
      <trkpt lat="45.03887" lon="6.6363">
        <ele>2010</ele>
        <time>2010-07-21T09:33:22Z</time>
      </trkpt>
      <trkpt lat="45.03889" lon="6.63629">
        <ele>2010</ele>
        <time>2010-07-21T09:33:24Z</time>
      </trkpt>
      <trkpt lat="45.03889" lon="6.63636">
        <ele>2011</ele>
        <time>2010-07-21T09:33:30Z</time>
      </trkpt>
      <trkpt lat="45.03888" lon="6.6364">
        <ele>2012</ele>
        <time>2010-07-21T09:33:33Z</time>
      </trkpt>
      <trkpt lat="45.03887" lon="6.63648">
        <ele>2013</ele>
        <time>2010-07-21T09:33:39Z</time>
      </trkpt>
      <trkpt lat="45.03886" lon="6.63654">
        <ele>2014</ele>
        <time>2010-07-21T09:33:42Z</time>
      </trkpt>
      <trkpt lat="45.0388" lon="6.63667">
        <ele>2014</ele>
        <time>2010-07-21T09:33:50Z</time>
      </trkpt>
      <trkpt lat="45.03877" lon="6.63677">
        <ele>2031</ele>
        <time>2010-07-21T09:33:57Z</time>
      </trkpt>
      <trkpt lat="45.03877" lon="6.6368">
        <ele>2031</ele>
        <time>2010-07-21T09:34:02Z</time>
      </trkpt>
      <trkpt lat="45.03878" lon="6.63682">
        <ele>2032</ele>
        <time>2010-07-21T09:34:07Z</time>
      </trkpt>
      <trkpt lat="45.03881" lon="6.63678">
        <ele>2032</ele>
        <time>2010-07-21T09:34:15Z</time>
      </trkpt>
      <trkpt lat="45.03886" lon="6.63676">
        <ele>2032</ele>
        <time>2010-07-21T09:34:22Z</time>
      </trkpt>
      <trkpt lat="45.03889" lon="6.63675">
        <ele>2033</ele>
        <time>2010-07-21T09:34:29Z</time>
      </trkpt>
      <trkpt lat="45.03894" lon="6.63675">
        <ele>2033</ele>
        <time>2010-07-21T09:34:35Z</time>
      </trkpt>
      <trkpt lat="45.03897" lon="6.63675">
        <ele>2033</ele>
        <time>2010-07-21T09:34:41Z</time>
      </trkpt>
      <trkpt lat="45.03901" lon="6.63676">
        <ele>2034</ele>
        <time>2010-07-21T09:34:45Z</time>
      </trkpt>
      <trkpt lat="45.0391" lon="6.63676">
        <ele>2034</ele>
        <time>2010-07-21T09:34:54Z</time>
      </trkpt>
      <trkpt lat="45.03914" lon="6.63674">
        <ele>2034</ele>
        <time>2010-07-21T09:35:00Z</time>
      </trkpt>
      <trkpt lat="45.03915" lon="6.63672">
        <ele>2034</ele>
        <time>2010-07-21T09:35:07Z</time>
      </trkpt>
      <trkpt lat="45.03915" lon="6.63676">
        <ele>2034</ele>
        <time>2010-07-21T09:35:13Z</time>
      </trkpt>
      <trkpt lat="45.0391" lon="6.63682">
        <ele>2035</ele>
        <time>2010-07-21T09:35:22Z</time>
      </trkpt>
      <trkpt lat="45.03909" lon="6.63685">
        <ele>2035</ele>
        <time>2010-07-21T09:35:28Z</time>
      </trkpt>
      <trkpt lat="45.03904" lon="6.63688">
        <ele>2035</ele>
        <time>2010-07-21T09:35:36Z</time>
      </trkpt>
      <trkpt lat="45.039" lon="6.63691">
        <ele>2035</ele>
        <time>2010-07-21T09:35:43Z</time>
      </trkpt>
      <trkpt lat="45.03897" lon="6.63696">
        <ele>2036</ele>
        <time>2010-07-21T09:35:51Z</time>
      </trkpt>
      <trkpt lat="45.03896" lon="6.63697">
        <ele>2036</ele>
        <time>2010-07-21T09:36:00Z</time>
      </trkpt>
      <trkpt lat="45.03896" lon="6.63696">
        <ele>2036</ele>
        <time>2010-07-21T09:36:09Z</time>
      </trkpt>
      <trkpt lat="45.03895" lon="6.63695">
        <ele>2036</ele>
        <time>2010-07-21T09:36:14Z</time>
      </trkpt>
      <trkpt lat="45.03895" lon="6.63694">
        <ele>2035</ele>
        <time>2010-07-21T09:36:18Z</time>
      </trkpt>
      <trkpt lat="45.03895" lon="6.63694">
        <ele>2035</ele>
        <time>2010-07-21T09:36:22Z</time>
      </trkpt>
      <trkpt lat="45.03896" lon="6.63693">
        <ele>2035</ele>
        <time>2010-07-21T09:36:28Z</time>
      </trkpt>
      <trkpt lat="45.03895" lon="6.63692">
        <ele>2035</ele>
        <time>2010-07-21T09:36:36Z</time>
      </trkpt>
      <trkpt lat="45.03891" lon="6.63696">
        <ele>2035</ele>
        <time>2010-07-21T09:36:48Z</time>
      </trkpt>
      <trkpt lat="45.03891" lon="6.63696">
        <ele>2035</ele>
        <time>2010-07-21T09:36:56Z</time>
      </trkpt>
      <trkpt lat="45.03891" lon="6.63697">
        <ele>2035</ele>
        <time>2010-07-21T09:37:07Z</time>
      </trkpt>
      <trkpt lat="45.03894" lon="6.63697">
        <ele>2036</ele>
        <time>2010-07-21T09:37:16Z</time>
      </trkpt>
      <trkpt lat="45.03891" lon="6.637">
        <ele>2036</ele>
        <time>2010-07-21T09:38:02Z</time>
      </trkpt>
      <trkpt lat="45.03902" lon="6.63701">
        <ele>2037</ele>
        <time>2010-07-21T09:38:17Z</time>
      </trkpt>
      <trkpt lat="45.03906" lon="6.637">
        <ele>2037</ele>
        <time>2010-07-21T09:38:35Z</time>
      </trkpt>
      <trkpt lat="45.0391" lon="6.63696">
        <ele>2037</ele>
        <time>2010-07-21T09:38:41Z</time>
      </trkpt>
      <trkpt lat="45.03909" lon="6.63694">
        <ele>2036</ele>
        <time>2010-07-21T09:38:51Z</time>
      </trkpt>
      <trkpt lat="45.03899" lon="6.63704">
        <ele>2037</ele>
        <time>2010-07-21T09:39:23Z</time>
      </trkpt>
      <trkpt lat="45.03896" lon="6.637">
        <ele>2036</ele>
        <time>2010-07-21T09:39:27Z</time>
      </trkpt>
      <trkpt lat="45.03881" lon="6.63688">
        <ele>2033</ele>
        <time>2010-07-21T09:39:41Z</time>
      </trkpt>
      <trkpt lat="45.03875" lon="6.63686">
        <ele>2032</ele>
        <time>2010-07-21T09:39:54Z</time>
      </trkpt>
      <trkpt lat="45.03878" lon="6.6369">
        <ele>2033</ele>
        <time>2010-07-21T09:40:10Z</time>
      </trkpt>
      <trkpt lat="45.03881" lon="6.63694">
        <ele>2034</ele>
        <time>2010-07-21T09:40:16Z</time>
      </trkpt>
      <trkpt lat="45.03887" lon="6.63704">
        <ele>2036</ele>
        <time>2010-07-21T09:40:28Z</time>
      </trkpt>
      <trkpt lat="45.03881" lon="6.63701">
        <ele>2035</ele>
        <time>2010-07-21T09:40:49Z</time>
      </trkpt>
      <trkpt lat="45.03886" lon="6.63695">
        <ele>2034</ele>
        <time>2010-07-21T09:41:13Z</time>
      </trkpt>
      <trkpt lat="45.03892" lon="6.63697">
        <ele>2035</ele>
        <time>2010-07-21T09:41:28Z</time>
      </trkpt>
      <trkpt lat="45.03903" lon="6.6371">
        <ele>2039</ele>
        <time>2010-07-21T09:41:47Z</time>
      </trkpt>
      <trkpt lat="45.03904" lon="6.63712">
        <ele>2040</ele>
        <time>2010-07-21T09:42:08Z</time>
      </trkpt>
      <trkpt lat="45.03899" lon="6.63708">
        <ele>2038</ele>
        <time>2010-07-21T09:42:10Z</time>
      </trkpt>
      <trkpt lat="45.03896" lon="6.6371">
        <ele>2038</ele>
        <time>2010-07-21T09:42:18Z</time>
      </trkpt>
      <trkpt lat="45.03895" lon="6.6371">
        <ele>2038</ele>
        <time>2010-07-21T09:42:23Z</time>
      </trkpt>
      <trkpt lat="45.03895" lon="6.6371">
        <ele>2038</ele>
        <time>2010-07-21T09:42:27Z</time>
      </trkpt>
      <trkpt lat="45.03894" lon="6.6371">
        <ele>2038</ele>
        <time>2010-07-21T09:42:29Z</time>
      </trkpt>
      <trkpt lat="45.03894" lon="6.63711">
        <ele>2038</ele>
        <time>2010-07-21T09:42:30Z</time>
      </trkpt>
      <trkpt lat="45.03893" lon="6.63714">
        <ele>2039</ele>
        <time>2010-07-21T09:42:38Z</time>
      </trkpt>
      <trkpt lat="45.03893" lon="6.63719">
        <ele>2040</ele>
        <time>2010-07-21T09:42:41Z</time>
      </trkpt>
      <trkpt lat="45.0389" lon="6.63733">
        <ele>2043</ele>
        <time>2010-07-21T09:42:48Z</time>
      </trkpt>
      <trkpt lat="45.03888" lon="6.6374">
        <ele>2043</ele>
        <time>2010-07-21T09:42:54Z</time>
      </trkpt>
      <trkpt lat="45.03879" lon="6.63749">
        <ele>2042</ele>
        <time>2010-07-21T09:43:03Z</time>
      </trkpt>
      <trkpt lat="45.03875" lon="6.63752">
        <ele>2058</ele>
        <time>2010-07-21T09:43:06Z</time>
      </trkpt>
      <trkpt lat="45.03877" lon="6.63755">
        <ele>2059</ele>
        <time>2010-07-21T09:43:10Z</time>
      </trkpt>
      <trkpt lat="45.03886" lon="6.63753">
        <ele>2060</ele>
        <time>2010-07-21T09:43:17Z</time>
      </trkpt>
      <trkpt lat="45.03898" lon="6.63748">
        <ele>2048</ele>
        <time>2010-07-21T09:43:25Z</time>
      </trkpt>
      <trkpt lat="45.03909" lon="6.63739">
        <ele>2051</ele>
        <time>2010-07-21T09:43:34Z</time>
      </trkpt>
      <trkpt lat="45.03913" lon="6.63736">
        <ele>2050</ele>
        <time>2010-07-21T09:43:37Z</time>
      </trkpt>
      <trkpt lat="45.0392" lon="6.63736">
        <ele>2058</ele>
        <time>2010-07-21T09:43:45Z</time>
      </trkpt>
      <trkpt lat="45.03919" lon="6.63736">
        <ele>2058</ele>
        <time>2010-07-21T09:43:58Z</time>
      </trkpt>
      <trkpt lat="45.03919" lon="6.63736">
        <ele>2058</ele>
        <time>2010-07-21T09:44:05Z</time>
      </trkpt>
      <trkpt lat="45.03919" lon="6.63735">
        <ele>2057</ele>
        <time>2010-07-21T09:44:10Z</time>
      </trkpt>
      <trkpt lat="45.0392" lon="6.63735">
        <ele>2057</ele>
        <time>2010-07-21T09:44:16Z</time>
      </trkpt>
      <trkpt lat="45.0392" lon="6.63735">
        <ele>2057</ele>
        <time>2010-07-21T09:44:18Z</time>
      </trkpt>
      <trkpt lat="45.03919" lon="6.63735">
        <ele>2057</ele>
        <time>2010-07-21T09:44:21Z</time>
      </trkpt>
      <trkpt lat="45.03918" lon="6.63735">
        <ele>2057</ele>
        <time>2010-07-21T09:44:26Z</time>
      </trkpt>
      <trkpt lat="45.03913" lon="6.63731">
        <ele>2048</ele>
        <time>2010-07-21T09:44:37Z</time>
      </trkpt>
      <trkpt lat="45.03915" lon="6.63733">
        <ele>2049</ele>
        <time>2010-07-21T09:44:48Z</time>
      </trkpt>
      <trkpt lat="45.03913" lon="6.63731">
        <ele>2048</ele>
        <time>2010-07-21T09:45:09Z</time>
      </trkpt>
      <trkpt lat="45.03917" lon="6.6373">
        <ele>2056</ele>
        <time>2010-07-21T09:45:17Z</time>
      </trkpt>
      <trkpt lat="45.03926" lon="6.6373">
        <ele>2056</ele>
        <time>2010-07-21T09:45:21Z</time>
      </trkpt>
      <trkpt lat="45.03928" lon="6.6373">
        <ele>2056</ele>
        <time>2010-07-21T09:45:22Z</time>
      </trkpt>
      <trkpt lat="45.03943" lon="6.63728">
        <ele>2055</ele>
        <time>2010-07-21T09:45:28Z</time>
      </trkpt>
      <trkpt lat="45.03961" lon="6.63723">
        <ele>2055</ele>
        <time>2010-07-21T09:45:36Z</time>
      </trkpt>
      <trkpt lat="45.03977" lon="6.6372">
        <ele>2056</ele>
        <time>2010-07-21T09:45:43Z</time>
      </trkpt>
      <trkpt lat="45.03998" lon="6.63717">
        <ele>2057</ele>
        <time>2010-07-21T09:45:52Z</time>
      </trkpt>
      <trkpt lat="45.04013" lon="6.6371">
        <ele>2064</ele>
        <time>2010-07-21T09:45:59Z</time>
      </trkpt>
      <trkpt lat="45.04034" lon="6.63699">
        <ele>2065</ele>
        <time>2010-07-21T09:46:08Z</time>
      </trkpt>
      <trkpt lat="45.0405" lon="6.63688">
        <ele>2066</ele>
        <time>2010-07-21T09:46:15Z</time>
      </trkpt>
      <trkpt lat="45.04068" lon="6.63678">
        <ele>2067</ele>
        <time>2010-07-21T09:46:23Z</time>
      </trkpt>
      <trkpt lat="45.04074" lon="6.63665">
        <ele>2062</ele>
        <time>2010-07-21T09:46:27Z</time>
      </trkpt>
      <trkpt lat="45.04081" lon="6.63654">
        <ele>2060</ele>
        <time>2010-07-21T09:46:32Z</time>
      </trkpt>
      <trkpt lat="45.04087" lon="6.63645">
        <ele>2069</ele>
        <time>2010-07-21T09:46:36Z</time>
      </trkpt>
      <trkpt lat="45.04092" lon="6.63633">
        <ele>2069</ele>
        <time>2010-07-21T09:46:41Z</time>
      </trkpt>
      <trkpt lat="45.04097" lon="6.6363">
        <ele>2069</ele>
        <time>2010-07-21T09:46:44Z</time>
      </trkpt>
      <trkpt lat="45.04112" lon="6.63621">
        <ele>2069</ele>
        <time>2010-07-21T09:46:53Z</time>
      </trkpt>
      <trkpt lat="45.04117" lon="6.63603">
        <ele>2068</ele>
        <time>2010-07-21T09:46:59Z</time>
      </trkpt>
      <trkpt lat="45.04125" lon="6.63587">
        <ele>2069</ele>
        <time>2010-07-21T09:47:05Z</time>
      </trkpt>
      <trkpt lat="45.04136" lon="6.63571">
        <ele>2066</ele>
        <time>2010-07-21T09:47:12Z</time>
      </trkpt>
      <trkpt lat="45.04149" lon="6.6356">
        <ele>2068</ele>
        <time>2010-07-21T09:47:19Z</time>
      </trkpt>
      <trkpt lat="45.0416" lon="6.63551">
        <ele>2068</ele>
        <time>2010-07-21T09:47:26Z</time>
      </trkpt>
      <trkpt lat="45.04168" lon="6.63543">
        <ele>2081</ele>
        <time>2010-07-21T09:47:32Z</time>
      </trkpt>
      <trkpt lat="45.04172" lon="6.63539">
        <ele>2081</ele>
        <time>2010-07-21T09:47:35Z</time>
      </trkpt>
      <trkpt lat="45.04177" lon="6.6353">
        <ele>2081</ele>
        <time>2010-07-21T09:47:41Z</time>
      </trkpt>
      <trkpt lat="45.0418" lon="6.63524">
        <ele>2081</ele>
        <time>2010-07-21T09:47:44Z</time>
      </trkpt>
      <trkpt lat="45.04186" lon="6.63521">
        <ele>2081</ele>
        <time>2010-07-21T09:47:48Z</time>
      </trkpt>
      <trkpt lat="45.04187" lon="6.63505">
        <ele>2081</ele>
        <time>2010-07-21T09:47:54Z</time>
      </trkpt>
      <trkpt lat="45.04193" lon="6.63495">
        <ele>2079</ele>
        <time>2010-07-21T09:48:00Z</time>
      </trkpt>
      <trkpt lat="45.04201" lon="6.63481">
        <ele>2079</ele>
        <time>2010-07-21T09:48:07Z</time>
      </trkpt>
      <trkpt lat="45.04211" lon="6.63468">
        <ele>2079</ele>
        <time>2010-07-21T09:48:14Z</time>
      </trkpt>
      <trkpt lat="45.04221" lon="6.63456">
        <ele>2080</ele>
        <time>2010-07-21T09:48:21Z</time>
      </trkpt>
      <trkpt lat="45.04233" lon="6.63444">
        <ele>2081</ele>
        <time>2010-07-21T09:48:30Z</time>
      </trkpt>
      <trkpt lat="45.04246" lon="6.63428">
        <ele>2083</ele>
        <time>2010-07-21T09:48:39Z</time>
      </trkpt>
      <trkpt lat="45.04255" lon="6.63415">
        <ele>2087</ele>
        <time>2010-07-21T09:48:46Z</time>
      </trkpt>
      <trkpt lat="45.04268" lon="6.63401">
        <ele>2089</ele>
        <time>2010-07-21T09:48:55Z</time>
      </trkpt>
      <trkpt lat="45.04275" lon="6.63386">
        <ele>2090</ele>
        <time>2010-07-21T09:49:02Z</time>
      </trkpt>
      <trkpt lat="45.04285" lon="6.63369">
        <ele>2090</ele>
        <time>2010-07-21T09:49:11Z</time>
      </trkpt>
      <trkpt lat="45.0429" lon="6.63359">
        <ele>2091</ele>
        <time>2010-07-21T09:49:16Z</time>
      </trkpt>
      <trkpt lat="45.04299" lon="6.63348">
        <ele>2092</ele>
        <time>2010-07-21T09:49:23Z</time>
      </trkpt>
      <trkpt lat="45.04307" lon="6.63338">
        <ele>2093</ele>
        <time>2010-07-21T09:49:30Z</time>
      </trkpt>
      <trkpt lat="45.04319" lon="6.63327">
        <ele>2094</ele>
        <time>2010-07-21T09:49:39Z</time>
      </trkpt>
      <trkpt lat="45.0433" lon="6.63317">
        <ele>2094</ele>
        <time>2010-07-21T09:49:47Z</time>
      </trkpt>
      <trkpt lat="45.04342" lon="6.63306">
        <ele>2102</ele>
        <time>2010-07-21T09:49:56Z</time>
      </trkpt>
      <trkpt lat="45.04353" lon="6.63296">
        <ele>2103</ele>
        <time>2010-07-21T09:50:04Z</time>
      </trkpt>
      <trkpt lat="45.04365" lon="6.63284">
        <ele>2104</ele>
        <time>2010-07-21T09:50:13Z</time>
      </trkpt>
      <trkpt lat="45.04372" lon="6.63274">
        <ele>2104</ele>
        <time>2010-07-21T09:50:19Z</time>
      </trkpt>
      <trkpt lat="45.04377" lon="6.63261">
        <ele>2104</ele>
        <time>2010-07-21T09:50:25Z</time>
      </trkpt>
      <trkpt lat="45.04385" lon="6.63258">
        <ele>2105</ele>
        <time>2010-07-21T09:50:31Z</time>
      </trkpt>
      <trkpt lat="45.04398" lon="6.63254">
        <ele>2106</ele>
        <time>2010-07-21T09:50:39Z</time>
      </trkpt>
      <trkpt lat="45.04406" lon="6.63242">
        <ele>2108</ele>
        <time>2010-07-21T09:50:46Z</time>
      </trkpt>
      <trkpt lat="45.04416" lon="6.63229">
        <ele>2108</ele>
        <time>2010-07-21T09:50:55Z</time>
      </trkpt>
      <trkpt lat="45.04425" lon="6.63218">
        <ele>2113</ele>
        <time>2010-07-21T09:51:03Z</time>
      </trkpt>
      <trkpt lat="45.0443" lon="6.63211">
        <ele>2114</ele>
        <time>2010-07-21T09:51:08Z</time>
      </trkpt>
      <trkpt lat="45.04441" lon="6.63211">
        <ele>2114</ele>
        <time>2010-07-21T09:51:14Z</time>
      </trkpt>
      <trkpt lat="45.04445" lon="6.6321">
        <ele>2114</ele>
        <time>2010-07-21T09:51:17Z</time>
      </trkpt>
      <trkpt lat="45.04459" lon="6.6321">
        <ele>2115</ele>
        <time>2010-07-21T09:51:25Z</time>
      </trkpt>
      <trkpt lat="45.04472" lon="6.63209">
        <ele>2116</ele>
        <time>2010-07-21T09:51:32Z</time>
      </trkpt>
      <trkpt lat="45.04484" lon="6.63204">
        <ele>2116</ele>
        <time>2010-07-21T09:51:40Z</time>
      </trkpt>
      <trkpt lat="45.04497" lon="6.63196">
        <ele>2117</ele>
        <time>2010-07-21T09:51:48Z</time>
      </trkpt>
      <trkpt lat="45.04506" lon="6.63191">
        <ele>2121</ele>
        <time>2010-07-21T09:51:54Z</time>
      </trkpt>
      <trkpt lat="45.04515" lon="6.63191">
        <ele>2122</ele>
        <time>2010-07-21T09:52:00Z</time>
      </trkpt>
      <trkpt lat="45.04525" lon="6.63191">
        <ele>2122</ele>
        <time>2010-07-21T09:52:07Z</time>
      </trkpt>
      <trkpt lat="45.04528" lon="6.63189">
        <ele>2122</ele>
        <time>2010-07-21T09:52:09Z</time>
      </trkpt>
      <trkpt lat="45.04548" lon="6.6319">
        <ele>2124</ele>
        <time>2010-07-21T09:52:19Z</time>
      </trkpt>
      <trkpt lat="45.04557" lon="6.63191">
        <ele>2124</ele>
        <time>2010-07-21T09:52:25Z</time>
      </trkpt>
      <trkpt lat="45.04565" lon="6.63194">
        <ele>2125</ele>
        <time>2010-07-21T09:52:31Z</time>
      </trkpt>
      <trkpt lat="45.04574" lon="6.632">
        <ele>2125</ele>
        <time>2010-07-21T09:52:39Z</time>
      </trkpt>
      <trkpt lat="45.04583" lon="6.63201">
        <ele>2125</ele>
        <time>2010-07-21T09:52:45Z</time>
      </trkpt>
      <trkpt lat="45.04593" lon="6.63202">
        <ele>2131</ele>
        <time>2010-07-21T09:52:52Z</time>
      </trkpt>
      <trkpt lat="45.04604" lon="6.63202">
        <ele>2131</ele>
        <time>2010-07-21T09:53:00Z</time>
      </trkpt>
      <trkpt lat="45.04617" lon="6.63203">
        <ele>2132</ele>
        <time>2010-07-21T09:53:07Z</time>
      </trkpt>
      <trkpt lat="45.04633" lon="6.63204">
        <ele>2132</ele>
        <time>2010-07-21T09:53:15Z</time>
      </trkpt>
      <trkpt lat="45.04649" lon="6.63205">
        <ele>2133</ele>
        <time>2010-07-21T09:53:23Z</time>
      </trkpt>
      <trkpt lat="45.04666" lon="6.63205">
        <ele>2134</ele>
        <time>2010-07-21T09:53:33Z</time>
      </trkpt>
      <trkpt lat="45.04669" lon="6.63206">
        <ele>2138</ele>
        <time>2010-07-21T09:53:35Z</time>
      </trkpt>
      <trkpt lat="45.04684" lon="6.63202">
        <ele>2139</ele>
        <time>2010-07-21T09:53:43Z</time>
      </trkpt>
      <trkpt lat="45.04703" lon="6.63198">
        <ele>2140</ele>
        <time>2010-07-21T09:53:53Z</time>
      </trkpt>
      <trkpt lat="45.04719" lon="6.63194">
        <ele>2140</ele>
        <time>2010-07-21T09:54:02Z</time>
      </trkpt>
      <trkpt lat="45.04735" lon="6.63192">
        <ele>2141</ele>
        <time>2010-07-21T09:54:10Z</time>
      </trkpt>
      <trkpt lat="45.04739" lon="6.63192">
        <ele>2141</ele>
        <time>2010-07-21T09:54:17Z</time>
      </trkpt>
      <trkpt lat="45.04741" lon="6.63194">
        <ele>2141</ele>
        <time>2010-07-21T09:54:26Z</time>
      </trkpt>
      <trkpt lat="45.04741" lon="6.63194">
        <ele>2141</ele>
        <time>2010-07-21T09:54:33Z</time>
      </trkpt>
      <trkpt lat="45.04742" lon="6.63193">
        <ele>2141</ele>
        <time>2010-07-21T09:54:40Z</time>
      </trkpt>
      <trkpt lat="45.04741" lon="6.63192">
        <ele>2141</ele>
        <time>2010-07-21T09:54:48Z</time>
      </trkpt>
      <trkpt lat="45.0474" lon="6.63191">
        <ele>2141</ele>
        <time>2010-07-21T09:54:56Z</time>
      </trkpt>
      <trkpt lat="45.04738" lon="6.6319">
        <ele>2141</ele>
        <time>2010-07-21T09:55:11Z</time>
      </trkpt>
      <trkpt lat="45.04741" lon="6.63193">
        <ele>2141</ele>
        <time>2010-07-21T09:55:16Z</time>
      </trkpt>
      <trkpt lat="45.0474" lon="6.63191">
        <ele>2141</ele>
        <time>2010-07-21T09:55:22Z</time>
      </trkpt>
      <trkpt lat="45.04736" lon="6.63188">
        <ele>2141</ele>
        <time>2010-07-21T09:55:29Z</time>
      </trkpt>
      <trkpt lat="45.04732" lon="6.63185">
        <ele>2141</ele>
        <time>2010-07-21T09:56:06Z</time>
      </trkpt>
      <trkpt lat="45.04732" lon="6.63186">
        <ele>2141</ele>
        <time>2010-07-21T09:56:16Z</time>
      </trkpt>
      <trkpt lat="45.04733" lon="6.63186">
        <ele>2141</ele>
        <time>2010-07-21T09:56:34Z</time>
      </trkpt>
      <trkpt lat="45.04736" lon="6.63187">
        <ele>2141</ele>
        <time>2010-07-21T09:57:06Z</time>
      </trkpt>
      <trkpt lat="45.04736" lon="6.63188">
        <ele>2141</ele>
        <time>2010-07-21T09:57:11Z</time>
      </trkpt>
      <trkpt lat="45.04737" lon="6.63189">
        <ele>2141</ele>
        <time>2010-07-21T09:57:20Z</time>
      </trkpt>
      <trkpt lat="45.04739" lon="6.63191">
        <ele>2141</ele>
        <time>2010-07-21T09:57:35Z</time>
      </trkpt>
      <trkpt lat="45.0474" lon="6.63192">
        <ele>2141</ele>
        <time>2010-07-21T09:57:58Z</time>
      </trkpt>
      <trkpt lat="45.04741" lon="6.63193">
        <ele>2141</ele>
        <time>2010-07-21T09:58:20Z</time>
      </trkpt>
      <trkpt lat="45.04742" lon="6.63193">
        <ele>2141</ele>
        <time>2010-07-21T09:58:30Z</time>
      </trkpt>
      <trkpt lat="45.04732" lon="6.6318">
        <ele>2141</ele>
        <time>2010-07-21T09:59:36Z</time>
      </trkpt>
      <trkpt lat="45.04737" lon="6.63184">
        <ele>2142</ele>
        <time>2010-07-21T09:59:51Z</time>
      </trkpt>
      <trkpt lat="45.04742" lon="6.63189">
        <ele>2142</ele>
        <time>2010-07-21T10:00:07Z</time>
      </trkpt>
      <trkpt lat="45.04736" lon="6.63184">
        <ele>2142</ele>
        <time>2010-07-21T10:00:25Z</time>
      </trkpt>
      <trkpt lat="45.04741" lon="6.63188">
        <ele>2142</ele>
        <time>2010-07-21T10:00:32Z</time>
      </trkpt>
      <trkpt lat="45.04741" lon="6.63189">
        <ele>2142</ele>
        <time>2010-07-21T10:00:34Z</time>
      </trkpt>
      <trkpt lat="45.04747" lon="6.63191">
        <ele>2142</ele>
        <time>2010-07-21T10:00:39Z</time>
      </trkpt>
      <trkpt lat="45.04753" lon="6.63189">
        <ele>2146</ele>
        <time>2010-07-21T10:00:43Z</time>
      </trkpt>
      <trkpt lat="45.04762" lon="6.63183">
        <ele>2146</ele>
        <time>2010-07-21T10:00:49Z</time>
      </trkpt>
      <trkpt lat="45.04777" lon="6.63186">
        <ele>2147</ele>
        <time>2010-07-21T10:00:56Z</time>
      </trkpt>
      <trkpt lat="45.04787" lon="6.63184">
        <ele>2148</ele>
        <time>2010-07-21T10:01:02Z</time>
      </trkpt>
      <trkpt lat="45.04799" lon="6.63185">
        <ele>2149</ele>
        <time>2010-07-21T10:01:09Z</time>
      </trkpt>
      <trkpt lat="45.04808" lon="6.63185">
        <ele>2150</ele>
        <time>2010-07-21T10:01:15Z</time>
      </trkpt>
      <trkpt lat="45.04818" lon="6.63185">
        <ele>2150</ele>
        <time>2010-07-21T10:01:20Z</time>
      </trkpt>
      <trkpt lat="45.04828" lon="6.63187">
        <ele>2151</ele>
        <time>2010-07-21T10:01:24Z</time>
      </trkpt>
      <trkpt lat="45.0485" lon="6.63191">
        <ele>2155</ele>
        <time>2010-07-21T10:01:33Z</time>
      </trkpt>
      <trkpt lat="45.04868" lon="6.63193">
        <ele>2156</ele>
        <time>2010-07-21T10:01:41Z</time>
      </trkpt>
      <trkpt lat="45.04882" lon="6.63192">
        <ele>2156</ele>
        <time>2010-07-21T10:01:49Z</time>
      </trkpt>
      <trkpt lat="45.04891" lon="6.63189">
        <ele>2157</ele>
        <time>2010-07-21T10:01:54Z</time>
      </trkpt>
      <trkpt lat="45.04905" lon="6.63187">
        <ele>2158</ele>
        <time>2010-07-21T10:02:01Z</time>
      </trkpt>
      <trkpt lat="45.04919" lon="6.63188">
        <ele>2160</ele>
        <time>2010-07-21T10:02:07Z</time>
      </trkpt>
      <trkpt lat="45.04937" lon="6.63187">
        <ele>2160</ele>
        <time>2010-07-21T10:02:15Z</time>
      </trkpt>
      <trkpt lat="45.0495" lon="6.63186">
        <ele>2160</ele>
        <time>2010-07-21T10:02:20Z</time>
      </trkpt>
      <trkpt lat="45.0497" lon="6.63181">
        <ele>2160</ele>
        <time>2010-07-21T10:02:29Z</time>
      </trkpt>
      <trkpt lat="45.04992" lon="6.63175">
        <ele>2161</ele>
        <time>2010-07-21T10:02:37Z</time>
      </trkpt>
      <trkpt lat="45.05009" lon="6.6317">
        <ele>2162</ele>
        <time>2010-07-21T10:02:44Z</time>
      </trkpt>
      <trkpt lat="45.05021" lon="6.63168">
        <ele>2163</ele>
        <time>2010-07-21T10:02:50Z</time>
      </trkpt>
      <trkpt lat="45.05037" lon="6.63165">
        <ele>2167</ele>
        <time>2010-07-21T10:02:57Z</time>
      </trkpt>
      <trkpt lat="45.05051" lon="6.63162">
        <ele>2167</ele>
        <time>2010-07-21T10:03:04Z</time>
      </trkpt>
      <trkpt lat="45.05067" lon="6.63163">
        <ele>2168</ele>
        <time>2010-07-21T10:03:11Z</time>
      </trkpt>
      <trkpt lat="45.0508" lon="6.63165">
        <ele>2167</ele>
        <time>2010-07-21T10:03:16Z</time>
      </trkpt>
      <trkpt lat="45.05098" lon="6.63164">
        <ele>2170</ele>
        <time>2010-07-21T10:03:24Z</time>
      </trkpt>
      <trkpt lat="45.05113" lon="6.63165">
        <ele>2171</ele>
        <time>2010-07-21T10:03:32Z</time>
      </trkpt>
      <trkpt lat="45.05127" lon="6.63168">
        <ele>2172</ele>
        <time>2010-07-21T10:03:39Z</time>
      </trkpt>
      <trkpt lat="45.0514" lon="6.63167">
        <ele>2173</ele>
        <time>2010-07-21T10:03:47Z</time>
      </trkpt>
      <trkpt lat="45.05152" lon="6.63162">
        <ele>2174</ele>
        <time>2010-07-21T10:03:54Z</time>
      </trkpt>
      <trkpt lat="45.05163" lon="6.63152">
        <ele>2174</ele>
        <time>2010-07-21T10:04:02Z</time>
      </trkpt>
      <trkpt lat="45.05172" lon="6.6315">
        <ele>2177</ele>
        <time>2010-07-21T10:04:08Z</time>
      </trkpt>
      <trkpt lat="45.05187" lon="6.6315">
        <ele>2178</ele>
        <time>2010-07-21T10:04:17Z</time>
      </trkpt>
      <trkpt lat="45.05197" lon="6.63148">
        <ele>2179</ele>
        <time>2010-07-21T10:04:24Z</time>
      </trkpt>
      <trkpt lat="45.05211" lon="6.63145">
        <ele>2180</ele>
        <time>2010-07-21T10:04:34Z</time>
      </trkpt>
      <trkpt lat="45.05227" lon="6.63144">
        <ele>2181</ele>
        <time>2010-07-21T10:04:43Z</time>
      </trkpt>
      <trkpt lat="45.05238" lon="6.63142">
        <ele>2181</ele>
        <time>2010-07-21T10:04:49Z</time>
      </trkpt>
      <trkpt lat="45.05256" lon="6.63136">
        <ele>2186</ele>
        <time>2010-07-21T10:04:57Z</time>
      </trkpt>
      <trkpt lat="45.0527" lon="6.63131">
        <ele>2187</ele>
        <time>2010-07-21T10:05:03Z</time>
      </trkpt>
      <trkpt lat="45.05285" lon="6.63129">
        <ele>2188</ele>
        <time>2010-07-21T10:05:09Z</time>
      </trkpt>
      <trkpt lat="45.05304" lon="6.63128">
        <ele>2189</ele>
        <time>2010-07-21T10:05:17Z</time>
      </trkpt>
      <trkpt lat="45.05322" lon="6.63125">
        <ele>2190</ele>
        <time>2010-07-21T10:05:24Z</time>
      </trkpt>
      <trkpt lat="45.05345" lon="6.6312">
        <ele>2194</ele>
        <time>2010-07-21T10:05:32Z</time>
      </trkpt>
      <trkpt lat="45.05367" lon="6.63116">
        <ele>2195</ele>
        <time>2010-07-21T10:05:40Z</time>
      </trkpt>
      <trkpt lat="45.05382" lon="6.63111">
        <ele>2195</ele>
        <time>2010-07-21T10:05:46Z</time>
      </trkpt>
      <trkpt lat="45.05397" lon="6.63105">
        <ele>2196</ele>
        <time>2010-07-21T10:05:54Z</time>
      </trkpt>
      <trkpt lat="45.05407" lon="6.63101">
        <ele>2196</ele>
        <time>2010-07-21T10:06:00Z</time>
      </trkpt>
      <trkpt lat="45.05417" lon="6.63092">
        <ele>2196</ele>
        <time>2010-07-21T10:06:06Z</time>
      </trkpt>
      <trkpt lat="45.05428" lon="6.63087">
        <ele>2196</ele>
        <time>2010-07-21T10:06:12Z</time>
      </trkpt>
      <trkpt lat="45.05441" lon="6.63079">
        <ele>2194</ele>
        <time>2010-07-21T10:06:19Z</time>
      </trkpt>
      <trkpt lat="45.05451" lon="6.63075">
        <ele>2193</ele>
        <time>2010-07-21T10:06:25Z</time>
      </trkpt>
      <trkpt lat="45.0546" lon="6.63075">
        <ele>2193</ele>
        <time>2010-07-21T10:06:31Z</time>
      </trkpt>
      <trkpt lat="45.05462" lon="6.63078">
        <ele>2193</ele>
        <time>2010-07-21T10:06:37Z</time>
      </trkpt>
      <trkpt lat="45.05461" lon="6.63077">
        <ele>2193</ele>
        <time>2010-07-21T10:06:43Z</time>
      </trkpt>
      <trkpt lat="45.0546" lon="6.63076">
        <ele>2193</ele>
        <time>2010-07-21T10:06:50Z</time>
      </trkpt>
      <trkpt lat="45.05459" lon="6.63075">
        <ele>2193</ele>
        <time>2010-07-21T10:06:54Z</time>
      </trkpt>
      <trkpt lat="45.05458" lon="6.63074">
        <ele>2193</ele>
        <time>2010-07-21T10:07:00Z</time>
      </trkpt>
      <trkpt lat="45.05457" lon="6.63073">
        <ele>2193</ele>
        <time>2010-07-21T10:07:10Z</time>
      </trkpt>
      <trkpt lat="45.05455" lon="6.63071">
        <ele>2193</ele>
        <time>2010-07-21T10:07:19Z</time>
      </trkpt>
      <trkpt lat="45.05454" lon="6.63069">
        <ele>2193</ele>
        <time>2010-07-21T10:07:30Z</time>
      </trkpt>
      <trkpt lat="45.05455" lon="6.6307">
        <ele>2193</ele>
        <time>2010-07-21T10:07:49Z</time>
      </trkpt>
      <trkpt lat="45.05454" lon="6.6307">
        <ele>2193</ele>
        <time>2010-07-21T10:07:53Z</time>
      </trkpt>
      <trkpt lat="45.05455" lon="6.63072">
        <ele>2193</ele>
        <time>2010-07-21T10:07:59Z</time>
      </trkpt>
      <trkpt lat="45.05456" lon="6.63072">
        <ele>2193</ele>
        <time>2010-07-21T10:08:01Z</time>
      </trkpt>
      <trkpt lat="45.05463" lon="6.63077">
        <ele>2193</ele>
        <time>2010-07-21T10:08:13Z</time>
      </trkpt>
      <trkpt lat="45.05464" lon="6.63079">
        <ele>2193</ele>
        <time>2010-07-21T10:08:26Z</time>
      </trkpt>
      <trkpt lat="45.05462" lon="6.63083">
        <ele>2193</ele>
        <time>2010-07-21T10:08:44Z</time>
      </trkpt>
      <trkpt lat="45.05461" lon="6.63084">
        <ele>2195</ele>
        <time>2010-07-21T10:08:53Z</time>
      </trkpt>
      <trkpt lat="45.05464" lon="6.6308">
        <ele>2193</ele>
        <time>2010-07-21T10:09:32Z</time>
      </trkpt>
      <trkpt lat="45.05462" lon="6.63086">
        <ele>2195</ele>
        <time>2010-07-21T10:10:23Z</time>
      </trkpt>
      <trkpt lat="45.05463" lon="6.63092">
        <ele>2195</ele>
        <time>2010-07-21T10:11:06Z</time>
      </trkpt>
      <trkpt lat="45.05463" lon="6.63087">
        <ele>2195</ele>
        <time>2010-07-21T10:12:04Z</time>
      </trkpt>
      <trkpt lat="45.05461" lon="6.63087">
        <ele>2195</ele>
        <time>2010-07-21T10:12:51Z</time>
      </trkpt>
      <trkpt lat="45.05463" lon="6.63085">
        <ele>2195</ele>
        <time>2010-07-21T10:13:15Z</time>
      </trkpt>
      <trkpt lat="45.05455" lon="6.63067">
        <ele>2193</ele>
        <time>2010-07-21T11:52:05Z</time>
      </trkpt>
      <trkpt lat="45.05454" lon="6.63067">
        <ele>2193</ele>
        <time>2010-07-21T11:52:06Z</time>
      </trkpt>
      <trkpt lat="45.05453" lon="6.63067">
        <ele>2193</ele>
        <time>2010-07-21T11:52:07Z</time>
      </trkpt>
      <trkpt lat="45.05448" lon="6.6307">
        <ele>2193</ele>
        <time>2010-07-21T11:52:10Z</time>
      </trkpt>
      <trkpt lat="45.05444" lon="6.6307">
        <ele>2194</ele>
        <time>2010-07-21T11:52:13Z</time>
      </trkpt>
      <trkpt lat="45.05436" lon="6.63073">
        <ele>2194</ele>
        <time>2010-07-21T11:52:19Z</time>
      </trkpt>
      <trkpt lat="45.05425" lon="6.63082">
        <ele>2195</ele>
        <time>2010-07-21T11:52:25Z</time>
      </trkpt>
      <trkpt lat="45.05411" lon="6.6309">
        <ele>2196</ele>
        <time>2010-07-21T11:52:30Z</time>
      </trkpt>
      <trkpt lat="45.05398" lon="6.63097">
        <ele>2196</ele>
        <time>2010-07-21T11:52:35Z</time>
      </trkpt>
      <trkpt lat="45.05382" lon="6.63104">
        <ele>2195</ele>
        <time>2010-07-21T11:52:39Z</time>
      </trkpt>
      <trkpt lat="45.05354" lon="6.63114">
        <ele>2195</ele>
        <time>2010-07-21T11:52:44Z</time>
      </trkpt>
      <trkpt lat="45.05348" lon="6.63115">
        <ele>2194</ele>
        <time>2010-07-21T11:52:45Z</time>
      </trkpt>
      <trkpt lat="45.0533" lon="6.6312">
        <ele>2190</ele>
        <time>2010-07-21T11:52:48Z</time>
      </trkpt>
      <trkpt lat="45.05301" lon="6.63126">
        <ele>2189</ele>
        <time>2010-07-21T11:52:53Z</time>
      </trkpt>
      <trkpt lat="45.05278" lon="6.63126">
        <ele>2188</ele>
        <time>2010-07-21T11:52:57Z</time>
      </trkpt>
      <trkpt lat="45.05253" lon="6.63132">
        <ele>2187</ele>
        <time>2010-07-21T11:53:01Z</time>
      </trkpt>
      <trkpt lat="45.05242" lon="6.63138">
        <ele>2181</ele>
        <time>2010-07-21T11:53:03Z</time>
      </trkpt>
      <trkpt lat="45.05213" lon="6.63142">
        <ele>2180</ele>
        <time>2010-07-21T11:53:08Z</time>
      </trkpt>
      <trkpt lat="45.05193" lon="6.63146">
        <ele>2179</ele>
        <time>2010-07-21T11:53:11Z</time>
      </trkpt>
      <trkpt lat="45.05169" lon="6.63146">
        <ele>2178</ele>
        <time>2010-07-21T11:53:15Z</time>
      </trkpt>
      <trkpt lat="45.05164" lon="6.63147">
        <ele>2174</ele>
        <time>2010-07-21T11:53:16Z</time>
      </trkpt>
      <trkpt lat="45.05151" lon="6.63158">
        <ele>2174</ele>
        <time>2010-07-21T11:53:19Z</time>
      </trkpt>
      <trkpt lat="45.05139" lon="6.63163">
        <ele>2173</ele>
        <time>2010-07-21T11:53:21Z</time>
      </trkpt>
      <trkpt lat="45.05125" lon="6.63164">
        <ele>2172</ele>
        <time>2010-07-21T11:53:23Z</time>
      </trkpt>
      <trkpt lat="45.05084" lon="6.63161">
        <ele>2168</ele>
        <time>2010-07-21T11:53:28Z</time>
      </trkpt>
      <trkpt lat="45.05049" lon="6.63159">
        <ele>2167</ele>
        <time>2010-07-21T11:53:32Z</time>
      </trkpt>
      <trkpt lat="45.05016" lon="6.63162">
        <ele>2165</ele>
        <time>2010-07-21T11:53:37Z</time>
      </trkpt>
      <trkpt lat="45.0501" lon="6.63162">
        <ele>2164</ele>
        <time>2010-07-21T11:53:38Z</time>
      </trkpt>
      <trkpt lat="45.04973" lon="6.63174">
        <ele>2160</ele>
        <time>2010-07-21T11:53:44Z</time>
      </trkpt>
      <trkpt lat="45.04967" lon="6.63177">
        <ele>2160</ele>
        <time>2010-07-21T11:53:45Z</time>
      </trkpt>
      <trkpt lat="45.04942" lon="6.6318">
        <ele>2160</ele>
        <time>2010-07-21T11:53:50Z</time>
      </trkpt>
      <trkpt lat="45.04928" lon="6.63181">
        <ele>2160</ele>
        <time>2010-07-21T11:53:54Z</time>
      </trkpt>
      <trkpt lat="45.04902" lon="6.63182">
        <ele>2158</ele>
        <time>2010-07-21T11:54:00Z</time>
      </trkpt>
      <trkpt lat="45.04886" lon="6.63186">
        <ele>2157</ele>
        <time>2010-07-21T11:54:03Z</time>
      </trkpt>
      <trkpt lat="45.04876" lon="6.63189">
        <ele>2156</ele>
        <time>2010-07-21T11:54:05Z</time>
      </trkpt>
      <trkpt lat="45.04863" lon="6.6319">
        <ele>2156</ele>
        <time>2010-07-21T11:54:07Z</time>
      </trkpt>
      <trkpt lat="45.04829" lon="6.63188">
        <ele>2151</ele>
        <time>2010-07-21T11:54:13Z</time>
      </trkpt>
      <trkpt lat="45.04819" lon="6.63187">
        <ele>2150</ele>
        <time>2010-07-21T11:54:15Z</time>
      </trkpt>
      <trkpt lat="45.04794" lon="6.63181">
        <ele>2148</ele>
        <time>2010-07-21T11:54:20Z</time>
      </trkpt>
      <trkpt lat="45.04785" lon="6.63181">
        <ele>2148</ele>
        <time>2010-07-21T11:54:22Z</time>
      </trkpt>
      <trkpt lat="45.04761" lon="6.63184">
        <ele>2146</ele>
        <time>2010-07-21T11:54:27Z</time>
      </trkpt>
      <trkpt lat="45.04745" lon="6.63185">
        <ele>2142</ele>
        <time>2010-07-21T11:54:33Z</time>
      </trkpt>
      <trkpt lat="45.04732" lon="6.63183">
        <ele>2141</ele>
        <time>2010-07-21T11:54:37Z</time>
      </trkpt>
      <trkpt lat="45.04716" lon="6.63189">
        <ele>2140</ele>
        <time>2010-07-21T11:54:41Z</time>
      </trkpt>
      <trkpt lat="45.04685" lon="6.63198">
        <ele>2139</ele>
        <time>2010-07-21T11:54:46Z</time>
      </trkpt>
      <trkpt lat="45.0467" lon="6.63202">
        <ele>2138</ele>
        <time>2010-07-21T11:54:49Z</time>
      </trkpt>
      <trkpt lat="45.0466" lon="6.63201">
        <ele>2133</ele>
        <time>2010-07-21T11:54:51Z</time>
      </trkpt>
      <trkpt lat="45.04623" lon="6.63203">
        <ele>2132</ele>
        <time>2010-07-21T11:54:58Z</time>
      </trkpt>
      <trkpt lat="45.04608" lon="6.63202">
        <ele>2131</ele>
        <time>2010-07-21T11:55:01Z</time>
      </trkpt>
      <trkpt lat="45.04593" lon="6.63198">
        <ele>2131</ele>
        <time>2010-07-21T11:55:04Z</time>
      </trkpt>
      <trkpt lat="45.04573" lon="6.63192">
        <ele>2125</ele>
        <time>2010-07-21T11:55:08Z</time>
      </trkpt>
      <trkpt lat="45.04557" lon="6.63184">
        <ele>2124</ele>
        <time>2010-07-21T11:55:13Z</time>
      </trkpt>
      <trkpt lat="45.04549" lon="6.63182">
        <ele>2124</ele>
        <time>2010-07-21T11:55:15Z</time>
      </trkpt>
      <trkpt lat="45.04541" lon="6.63184">
        <ele>2123</ele>
        <time>2010-07-21T11:55:17Z</time>
      </trkpt>
      <trkpt lat="45.04519" lon="6.63187">
        <ele>2122</ele>
        <time>2010-07-21T11:55:22Z</time>
      </trkpt>
      <trkpt lat="45.04495" lon="6.63192">
        <ele>2117</ele>
        <time>2010-07-21T11:55:27Z</time>
      </trkpt>
      <trkpt lat="45.04482" lon="6.63199">
        <ele>2116</ele>
        <time>2010-07-21T11:55:30Z</time>
      </trkpt>
      <trkpt lat="45.04458" lon="6.63205">
        <ele>2115</ele>
        <time>2010-07-21T11:55:34Z</time>
      </trkpt>
      <trkpt lat="45.04435" lon="6.63211">
        <ele>2114</ele>
        <time>2010-07-21T11:55:38Z</time>
      </trkpt>
      <trkpt lat="45.04431" lon="6.63216">
        <ele>2114</ele>
        <time>2010-07-21T11:55:40Z</time>
      </trkpt>
      <trkpt lat="45.04428" lon="6.63222">
        <ele>2113</ele>
        <time>2010-07-21T11:55:42Z</time>
      </trkpt>
      <trkpt lat="45.04414" lon="6.63233">
        <ele>2108</ele>
        <time>2010-07-21T11:55:46Z</time>
      </trkpt>
      <trkpt lat="45.04391" lon="6.63237">
        <ele>2107</ele>
        <time>2010-07-21T11:55:51Z</time>
      </trkpt>
      <trkpt lat="45.04381" lon="6.63247">
        <ele>2107</ele>
        <time>2010-07-21T11:55:54Z</time>
      </trkpt>
      <trkpt lat="45.04364" lon="6.63276">
        <ele>2104</ele>
        <time>2010-07-21T11:55:59Z</time>
      </trkpt>
      <trkpt lat="45.04352" lon="6.63287">
        <ele>2103</ele>
        <time>2010-07-21T11:56:01Z</time>
      </trkpt>
      <trkpt lat="45.04305" lon="6.63339">
        <ele>2093</ele>
        <time>2010-07-21T11:56:09Z</time>
      </trkpt>
      <trkpt lat="45.04301" lon="6.63344">
        <ele>2092</ele>
        <time>2010-07-21T11:56:10Z</time>
      </trkpt>
      <trkpt lat="45.04283" lon="6.63366">
        <ele>2090</ele>
        <time>2010-07-21T11:56:15Z</time>
      </trkpt>
      <trkpt lat="45.04269" lon="6.6339">
        <ele>2089</ele>
        <time>2010-07-21T11:56:21Z</time>
      </trkpt>
      <trkpt lat="45.04254" lon="6.63411">
        <ele>2087</ele>
        <time>2010-07-21T11:56:26Z</time>
      </trkpt>
      <trkpt lat="45.04238" lon="6.63434">
        <ele>2082</ele>
        <time>2010-07-21T11:56:33Z</time>
      </trkpt>
      <trkpt lat="45.04223" lon="6.63456">
        <ele>2080</ele>
        <time>2010-07-21T11:56:40Z</time>
      </trkpt>
      <trkpt lat="45.04219" lon="6.63462">
        <ele>2080</ele>
        <time>2010-07-21T11:56:42Z</time>
      </trkpt>
      <trkpt lat="45.04211" lon="6.63472">
        <ele>2080</ele>
        <time>2010-07-21T11:56:47Z</time>
      </trkpt>
      <trkpt lat="45.04202" lon="6.63486">
        <ele>2079</ele>
        <time>2010-07-21T11:56:52Z</time>
      </trkpt>
      <trkpt lat="45.04198" lon="6.635">
        <ele>2079</ele>
        <time>2010-07-21T11:56:58Z</time>
      </trkpt>
      <trkpt lat="45.04195" lon="6.63506">
        <ele>2082</ele>
        <time>2010-07-21T11:57:01Z</time>
      </trkpt>
      <trkpt lat="45.04194" lon="6.63516">
        <ele>2082</ele>
        <time>2010-07-21T11:57:04Z</time>
      </trkpt>
      <trkpt lat="45.04183" lon="6.63533">
        <ele>2082</ele>
        <time>2010-07-21T11:57:10Z</time>
      </trkpt>
      <trkpt lat="45.04171" lon="6.63545">
        <ele>2081</ele>
        <time>2010-07-21T11:57:14Z</time>
      </trkpt>
      <trkpt lat="45.04153" lon="6.63562">
        <ele>2069</ele>
        <time>2010-07-21T11:57:19Z</time>
      </trkpt>
      <trkpt lat="45.04144" lon="6.6357">
        <ele>2068</ele>
        <time>2010-07-21T11:57:21Z</time>
      </trkpt>
      <trkpt lat="45.04133" lon="6.63585">
        <ele>2071</ele>
        <time>2010-07-21T11:57:24Z</time>
      </trkpt>
      <trkpt lat="45.04118" lon="6.63606">
        <ele>2069</ele>
        <time>2010-07-21T11:57:28Z</time>
      </trkpt>
      <trkpt lat="45.04104" lon="6.63625">
        <ele>2069</ele>
        <time>2010-07-21T11:57:33Z</time>
      </trkpt>
      <trkpt lat="45.04091" lon="6.63633">
        <ele>2069</ele>
        <time>2010-07-21T11:57:37Z</time>
      </trkpt>
      <trkpt lat="45.04082" lon="6.63647">
        <ele>2057</ele>
        <time>2010-07-21T11:57:42Z</time>
      </trkpt>
      <trkpt lat="45.04075" lon="6.63652">
        <ele>2058</ele>
        <time>2010-07-21T11:57:45Z</time>
      </trkpt>
      <trkpt lat="45.04066" lon="6.63664">
        <ele>2058</ele>
        <time>2010-07-21T11:57:50Z</time>
      </trkpt>
      <trkpt lat="45.04059" lon="6.63672">
        <ele>2066</ele>
        <time>2010-07-21T11:57:53Z</time>
      </trkpt>
      <trkpt lat="45.04048" lon="6.63679">
        <ele>2065</ele>
        <time>2010-07-21T11:57:56Z</time>
      </trkpt>
      <trkpt lat="45.04027" lon="6.63694">
        <ele>2063</ele>
        <time>2010-07-21T11:58:02Z</time>
      </trkpt>
      <trkpt lat="45.04012" lon="6.63703">
        <ele>2063</ele>
        <time>2010-07-21T11:58:06Z</time>
      </trkpt>
      <trkpt lat="45.03982" lon="6.63713">
        <ele>2055</ele>
        <time>2010-07-21T11:58:13Z</time>
      </trkpt>
      <trkpt lat="45.03975" lon="6.63714">
        <ele>2055</ele>
        <time>2010-07-21T11:58:15Z</time>
      </trkpt>
      <trkpt lat="45.03963" lon="6.63715">
        <ele>2054</ele>
        <time>2010-07-21T11:58:21Z</time>
      </trkpt>
      <trkpt lat="45.0395" lon="6.6372">
        <ele>2054</ele>
        <time>2010-07-21T11:58:25Z</time>
      </trkpt>
      <trkpt lat="45.03924" lon="6.63726">
        <ele>2055</ele>
        <time>2010-07-21T11:58:32Z</time>
      </trkpt>
      <trkpt lat="45.03914" lon="6.63729">
        <ele>2047</ele>
        <time>2010-07-21T11:58:37Z</time>
      </trkpt>
      <trkpt lat="45.03913" lon="6.63729">
        <ele>2047</ele>
        <time>2010-07-21T11:58:39Z</time>
      </trkpt>
      <trkpt lat="45.03905" lon="6.63741">
        <ele>2050</ele>
        <time>2010-07-21T11:58:44Z</time>
      </trkpt>
      <trkpt lat="45.03889" lon="6.63753">
        <ele>2061</ele>
        <time>2010-07-21T11:58:49Z</time>
      </trkpt>
      <trkpt lat="45.03878" lon="6.63755">
        <ele>2059</ele>
        <time>2010-07-21T11:58:52Z</time>
      </trkpt>
      <trkpt lat="45.03878" lon="6.63751">
        <ele>2059</ele>
        <time>2010-07-21T11:58:56Z</time>
      </trkpt>
      <trkpt lat="45.03889" lon="6.63739">
        <ele>2043</ele>
        <time>2010-07-21T11:59:00Z</time>
      </trkpt>
      <trkpt lat="45.03896" lon="6.63716">
        <ele>2040</ele>
        <time>2010-07-21T11:59:05Z</time>
      </trkpt>
      <trkpt lat="45.03896" lon="6.63713">
        <ele>2039</ele>
        <time>2010-07-21T11:59:06Z</time>
      </trkpt>
      <trkpt lat="45.03894" lon="6.63695">
        <ele>2035</ele>
        <time>2010-07-21T11:59:12Z</time>
      </trkpt>
      <trkpt lat="45.03897" lon="6.63692">
        <ele>2035</ele>
        <time>2010-07-21T11:59:14Z</time>
      </trkpt>
      <trkpt lat="45.03905" lon="6.63679">
        <ele>2034</ele>
        <time>2010-07-21T11:59:20Z</time>
      </trkpt>
      <trkpt lat="45.03906" lon="6.63674">
        <ele>2034</ele>
        <time>2010-07-21T11:59:22Z</time>
      </trkpt>
      <trkpt lat="45.03904" lon="6.63671">
        <ele>2034</ele>
        <time>2010-07-21T11:59:26Z</time>
      </trkpt>
      <trkpt lat="45.03899" lon="6.63672">
        <ele>2033</ele>
        <time>2010-07-21T11:59:30Z</time>
      </trkpt>
      <trkpt lat="45.03897" lon="6.63673">
        <ele>2033</ele>
        <time>2010-07-21T11:59:31Z</time>
      </trkpt>
      <trkpt lat="45.03889" lon="6.63675">
        <ele>2033</ele>
        <time>2010-07-21T11:59:35Z</time>
      </trkpt>
      <trkpt lat="45.03882" lon="6.63677">
        <ele>2032</ele>
        <time>2010-07-21T11:59:40Z</time>
      </trkpt>
      <trkpt lat="45.03877" lon="6.63678">
        <ele>2031</ele>
        <time>2010-07-21T11:59:43Z</time>
      </trkpt>
      <trkpt lat="45.03871" lon="6.63684">
        <ele>2031</ele>
        <time>2010-07-21T11:59:48Z</time>
      </trkpt>
      <trkpt lat="45.03871" lon="6.63678">
        <ele>2030</ele>
        <time>2010-07-21T11:59:53Z</time>
      </trkpt>
      <trkpt lat="45.03876" lon="6.63664">
        <ele>2013</ele>
        <time>2010-07-21T11:59:59Z</time>
      </trkpt>
      <trkpt lat="45.03878" lon="6.6366">
        <ele>2013</ele>
        <time>2010-07-21T12:00:01Z</time>
      </trkpt>
      <trkpt lat="45.03881" lon="6.63644">
        <ele>2011</ele>
        <time>2010-07-21T12:00:08Z</time>
      </trkpt>
      <trkpt lat="45.03882" lon="6.63639">
        <ele>2011</ele>
        <time>2010-07-21T12:00:14Z</time>
      </trkpt>
      <trkpt lat="45.03879" lon="6.63639">
        <ele>2011</ele>
        <time>2010-07-21T12:00:18Z</time>
      </trkpt>
      <trkpt lat="45.0387" lon="6.63649">
        <ele>2010</ele>
        <time>2010-07-21T12:00:24Z</time>
      </trkpt>
      <trkpt lat="45.03867" lon="6.63652">
        <ele>2010</ele>
        <time>2010-07-21T12:00:26Z</time>
      </trkpt>
      <trkpt lat="45.03863" lon="6.63649">
        <ele>2009</ele>
        <time>2010-07-21T12:00:30Z</time>
      </trkpt>
      <trkpt lat="45.03863" lon="6.63634">
        <ele>2008</ele>
        <time>2010-07-21T12:00:35Z</time>
      </trkpt>
      <trkpt lat="45.03863" lon="6.63628">
        <ele>2007</ele>
        <time>2010-07-21T12:00:37Z</time>
      </trkpt>
      <trkpt lat="45.03861" lon="6.63611">
        <ele>2004</ele>
        <time>2010-07-21T12:00:43Z</time>
      </trkpt>
      <trkpt lat="45.03855" lon="6.63607">
        <ele>2003</ele>
        <time>2010-07-21T12:00:48Z</time>
      </trkpt>
      <trkpt lat="45.03852" lon="6.6361">
        <ele>2003</ele>
        <time>2010-07-21T12:00:50Z</time>
      </trkpt>
      <trkpt lat="45.0385" lon="6.63613">
        <ele>2003</ele>
        <time>2010-07-21T12:00:52Z</time>
      </trkpt>
      <trkpt lat="45.03844" lon="6.63612">
        <ele>2003</ele>
        <time>2010-07-21T12:00:56Z</time>
      </trkpt>
      <trkpt lat="45.0384" lon="6.63605">
        <ele>2001</ele>
        <time>2010-07-21T12:01:01Z</time>
      </trkpt>
      <trkpt lat="45.03839" lon="6.63604">
        <ele>2000</ele>
        <time>2010-07-21T12:01:02Z</time>
      </trkpt>
      <trkpt lat="45.03833" lon="6.63615">
        <ele>2003</ele>
        <time>2010-07-21T12:01:06Z</time>
      </trkpt>
      <trkpt lat="45.03829" lon="6.63622">
        <ele>1989</ele>
        <time>2010-07-21T12:01:08Z</time>
      </trkpt>
      <trkpt lat="45.03822" lon="6.63634">
        <ele>1990</ele>
        <time>2010-07-21T12:01:12Z</time>
      </trkpt>
      <trkpt lat="45.03814" lon="6.63632">
        <ele>1989</ele>
        <time>2010-07-21T12:01:16Z</time>
      </trkpt>
      <trkpt lat="45.03813" lon="6.6363">
        <ele>1988</ele>
        <time>2010-07-21T12:01:17Z</time>
      </trkpt>
      <trkpt lat="45.03806" lon="6.63611">
        <ele>1985</ele>
        <time>2010-07-21T12:01:23Z</time>
      </trkpt>
      <trkpt lat="45.03804" lon="6.63608">
        <ele>1985</ele>
        <time>2010-07-21T12:01:24Z</time>
      </trkpt>
      <trkpt lat="45.03799" lon="6.63592">
        <ele>1983</ele>
        <time>2010-07-21T12:01:29Z</time>
      </trkpt>
      <trkpt lat="45.038" lon="6.63586">
        <ele>1983</ele>
        <time>2010-07-21T12:01:30Z</time>
      </trkpt>
      <trkpt lat="45.038" lon="6.63578">
        <ele>1969</ele>
        <time>2010-07-21T12:01:32Z</time>
      </trkpt>
      <trkpt lat="45.03802" lon="6.63566">
        <ele>1968</ele>
        <time>2010-07-21T12:01:36Z</time>
      </trkpt>
      <trkpt lat="45.0379" lon="6.63573">
        <ele>1966</ele>
        <time>2010-07-21T12:01:41Z</time>
      </trkpt>
      <trkpt lat="45.03787" lon="6.63576">
        <ele>1966</ele>
        <time>2010-07-21T12:01:42Z</time>
      </trkpt>
      <trkpt lat="45.03777" lon="6.63586">
        <ele>1976</ele>
        <time>2010-07-21T12:01:45Z</time>
      </trkpt>
      <trkpt lat="45.03772" lon="6.63602">
        <ele>1977</ele>
        <time>2010-07-21T12:01:49Z</time>
      </trkpt>
      <trkpt lat="45.03763" lon="6.63608">
        <ele>1976</ele>
        <time>2010-07-21T12:01:53Z</time>
      </trkpt>
      <trkpt lat="45.03751" lon="6.63596">
        <ele>1969</ele>
        <time>2010-07-21T12:01:57Z</time>
      </trkpt>
      <trkpt lat="45.03733" lon="6.63589">
        <ele>1956</ele>
        <time>2010-07-21T12:02:03Z</time>
      </trkpt>
      <trkpt lat="45.03725" lon="6.63577">
        <ele>1943</ele>
        <time>2010-07-21T12:02:08Z</time>
      </trkpt>
      <trkpt lat="45.03725" lon="6.63563">
        <ele>1941</ele>
        <time>2010-07-21T12:02:12Z</time>
      </trkpt>
      <trkpt lat="45.03729" lon="6.6354">
        <ele>1938</ele>
        <time>2010-07-21T12:02:16Z</time>
      </trkpt>
      <trkpt lat="45.03733" lon="6.63524">
        <ele>1937</ele>
        <time>2010-07-21T12:02:20Z</time>
      </trkpt>
      <trkpt lat="45.03734" lon="6.63518">
        <ele>1937</ele>
        <time>2010-07-21T12:02:24Z</time>
      </trkpt>
      <trkpt lat="45.03733" lon="6.63515">
        <ele>1937</ele>
        <time>2010-07-21T12:02:32Z</time>
      </trkpt>
      <trkpt lat="45.03733" lon="6.63514">
        <ele>1937</ele>
        <time>2010-07-21T12:02:42Z</time>
      </trkpt>
      <trkpt lat="45.03732" lon="6.63514">
        <ele>1936</ele>
        <time>2010-07-21T12:03:04Z</time>
      </trkpt>
      <trkpt lat="45.03734" lon="6.63512">
        <ele>1937</ele>
        <time>2010-07-21T12:03:14Z</time>
      </trkpt>
      <trkpt lat="45.03734" lon="6.63512">
        <ele>1937</ele>
        <time>2010-07-21T12:03:16Z</time>
      </trkpt>
      <trkpt lat="45.03734" lon="6.63512">
        <ele>1937</ele>
        <time>2010-07-21T12:03:17Z</time>
      </trkpt>
      <trkpt lat="45.03733" lon="6.63514">
        <ele>1936</ele>
        <time>2010-07-21T12:03:25Z</time>
      </trkpt>
      <trkpt lat="45.03728" lon="6.63514">
        <ele>1936</ele>
        <time>2010-07-21T12:03:30Z</time>
      </trkpt>
      <trkpt lat="45.03723" lon="6.63517">
        <ele>1935</ele>
        <time>2010-07-21T12:03:35Z</time>
      </trkpt>
      <trkpt lat="45.03712" lon="6.6353">
        <ele>1934</ele>
        <time>2010-07-21T12:03:40Z</time>
      </trkpt>
      <trkpt lat="45.03711" lon="6.63529">
        <ele>1934</ele>
        <time>2010-07-21T12:03:41Z</time>
      </trkpt>
      <trkpt lat="45.03703" lon="6.6352">
        <ele>1932</ele>
        <time>2010-07-21T12:03:45Z</time>
      </trkpt>
      <trkpt lat="45.03687" lon="6.63525">
        <ele>1929</ele>
        <time>2010-07-21T12:03:50Z</time>
      </trkpt>
      <trkpt lat="45.03681" lon="6.63527">
        <ele>1928</ele>
        <time>2010-07-21T12:03:52Z</time>
      </trkpt>
      <trkpt lat="45.03677" lon="6.63512">
        <ele>1924</ele>
        <time>2010-07-21T12:03:56Z</time>
      </trkpt>
      <trkpt lat="45.03665" lon="6.63493">
        <ele>1908</ele>
        <time>2010-07-21T12:03:59Z</time>
      </trkpt>
      <trkpt lat="45.03657" lon="6.63481">
        <ele>1901</ele>
        <time>2010-07-21T12:04:01Z</time>
      </trkpt>
      <trkpt lat="45.0365" lon="6.63464">
        <ele>1896</ele>
        <time>2010-07-21T12:04:05Z</time>
      </trkpt>
      <trkpt lat="45.03652" lon="6.63486">
        <ele>1902</ele>
        <time>2010-07-21T12:04:09Z</time>
      </trkpt>
      <trkpt lat="45.03649" lon="6.63516">
        <ele>1911</ele>
        <time>2010-07-21T12:04:15Z</time>
      </trkpt>
      <trkpt lat="45.03646" lon="6.63518">
        <ele>1910</ele>
        <time>2010-07-21T12:04:21Z</time>
      </trkpt>
      <trkpt lat="45.03645" lon="6.63528">
        <ele>1910</ele>
        <time>2010-07-21T12:04:27Z</time>
      </trkpt>
      <trkpt lat="45.03651" lon="6.63543">
        <ele>1912</ele>
        <time>2010-07-21T12:04:30Z</time>
      </trkpt>
      <trkpt lat="45.03652" lon="6.6355">
        <ele>1913</ele>
        <time>2010-07-21T12:04:32Z</time>
      </trkpt>
      <trkpt lat="45.03642" lon="6.63548">
        <ele>1912</ele>
        <time>2010-07-21T12:04:36Z</time>
      </trkpt>
      <trkpt lat="45.03618" lon="6.63538">
        <ele>1908</ele>
        <time>2010-07-21T12:04:40Z</time>
      </trkpt>
      <trkpt lat="45.03607" lon="6.63529">
        <ele>1905</ele>
        <time>2010-07-21T12:04:44Z</time>
      </trkpt>
      <trkpt lat="45.03603" lon="6.63531">
        <ele>1905</ele>
        <time>2010-07-21T12:04:47Z</time>
      </trkpt>
      <trkpt lat="45.03603" lon="6.63559">
        <ele>1908</ele>
        <time>2010-07-21T12:04:52Z</time>
      </trkpt>
      <trkpt lat="45.03602" lon="6.63561">
        <ele>1908</ele>
        <time>2010-07-21T12:04:53Z</time>
      </trkpt>
      <trkpt lat="45.03597" lon="6.63568">
        <ele>1908</ele>
        <time>2010-07-21T12:05:01Z</time>
      </trkpt>
      <trkpt lat="45.03596" lon="6.63569">
        <ele>1908</ele>
        <time>2010-07-21T12:05:02Z</time>
      </trkpt>
      <trkpt lat="45.03595" lon="6.63569">
        <ele>1908</ele>
        <time>2010-07-21T12:05:07Z</time>
      </trkpt>
      <trkpt lat="45.03592" lon="6.63569">
        <ele>1908</ele>
        <time>2010-07-21T12:05:13Z</time>
      </trkpt>
      <trkpt lat="45.03589" lon="6.63568">
        <ele>1908</ele>
        <time>2010-07-21T12:05:15Z</time>
      </trkpt>
      <trkpt lat="45.03581" lon="6.63557">
        <ele>1905</ele>
        <time>2010-07-21T12:05:22Z</time>
      </trkpt>
      <trkpt lat="45.03579" lon="6.63545">
        <ele>1903</ele>
        <time>2010-07-21T12:05:29Z</time>
      </trkpt>
      <trkpt lat="45.03578" lon="6.63544">
        <ele>1903</ele>
        <time>2010-07-21T12:05:30Z</time>
      </trkpt>
      <trkpt lat="45.03568" lon="6.63544">
        <ele>1903</ele>
        <time>2010-07-21T12:05:35Z</time>
      </trkpt>
      <trkpt lat="45.03567" lon="6.63545">
        <ele>1904</ele>
        <time>2010-07-21T12:05:36Z</time>
      </trkpt>
      <trkpt lat="45.03566" lon="6.63544">
        <ele>1903</ele>
        <time>2010-07-21T12:05:43Z</time>
      </trkpt>
      <trkpt lat="45.03564" lon="6.6354">
        <ele>1903</ele>
        <time>2010-07-21T12:05:45Z</time>
      </trkpt>
      <trkpt lat="45.03557" lon="6.63528">
        <ele>1901</ele>
        <time>2010-07-21T12:05:49Z</time>
      </trkpt>
      <trkpt lat="45.03546" lon="6.6351">
        <ele>1900</ele>
        <time>2010-07-21T12:05:54Z</time>
      </trkpt>
      <trkpt lat="45.03537" lon="6.63502">
        <ele>1900</ele>
        <time>2010-07-21T12:05:58Z</time>
      </trkpt>
      <trkpt lat="45.03529" lon="6.63496">
        <ele>1883</ele>
        <time>2010-07-21T12:06:01Z</time>
      </trkpt>
      <trkpt lat="45.03518" lon="6.63494">
        <ele>1885</ele>
        <time>2010-07-21T12:06:05Z</time>
      </trkpt>
      <trkpt lat="45.03487" lon="6.63486">
        <ele>1883</ele>
        <time>2010-07-21T12:06:10Z</time>
      </trkpt>
      <trkpt lat="45.03461" lon="6.63479">
        <ele>1879</ele>
        <time>2010-07-21T12:06:14Z</time>
      </trkpt>
      <trkpt lat="45.03455" lon="6.63478">
        <ele>1879</ele>
        <time>2010-07-21T12:06:15Z</time>
      </trkpt>
      <trkpt lat="45.03447" lon="6.63481">
        <ele>1879</ele>
        <time>2010-07-21T12:06:17Z</time>
      </trkpt>
      <trkpt lat="45.03436" lon="6.63495">
        <ele>1883</ele>
        <time>2010-07-21T12:06:21Z</time>
      </trkpt>
      <trkpt lat="45.03432" lon="6.63499">
        <ele>1885</ele>
        <time>2010-07-21T12:06:22Z</time>
      </trkpt>
      <trkpt lat="45.03412" lon="6.63502">
        <ele>1896</ele>
        <time>2010-07-21T12:06:26Z</time>
      </trkpt>
      <trkpt lat="45.03396" lon="6.63499">
        <ele>1884</ele>
        <time>2010-07-21T12:06:29Z</time>
      </trkpt>
      <trkpt lat="45.03387" lon="6.63494">
        <ele>1883</ele>
        <time>2010-07-21T12:06:31Z</time>
      </trkpt>
      <trkpt lat="45.03357" lon="6.63493">
        <ele>1885</ele>
        <time>2010-07-21T12:06:37Z</time>
      </trkpt>
      <trkpt lat="45.03335" lon="6.63495">
        <ele>1892</ele>
        <time>2010-07-21T12:06:42Z</time>
      </trkpt>
      <trkpt lat="45.03322" lon="6.63475">
        <ele>1887</ele>
        <time>2010-07-21T12:06:47Z</time>
      </trkpt>
      <trkpt lat="45.03319" lon="6.63468">
        <ele>1885</ele>
        <time>2010-07-21T12:06:48Z</time>
      </trkpt>
      <trkpt lat="45.03301" lon="6.63454">
        <ele>1882</ele>
        <time>2010-07-21T12:06:52Z</time>
      </trkpt>
      <trkpt lat="45.03295" lon="6.63454">
        <ele>1882</ele>
        <time>2010-07-21T12:06:53Z</time>
      </trkpt>
      <trkpt lat="45.03269" lon="6.63453">
        <ele>1883</ele>
        <time>2010-07-21T12:06:57Z</time>
      </trkpt>
      <trkpt lat="45.03247" lon="6.63443">
        <ele>1884</ele>
        <time>2010-07-21T12:07:00Z</time>
      </trkpt>
      <trkpt lat="45.0322" lon="6.6344">
        <ele>1885</ele>
        <time>2010-07-21T12:07:04Z</time>
      </trkpt>
      <trkpt lat="45.03203" lon="6.63435">
        <ele>1885</ele>
        <time>2010-07-21T12:07:07Z</time>
      </trkpt>
      <trkpt lat="45.03188" lon="6.63428">
        <ele>1884</ele>
        <time>2010-07-21T12:07:10Z</time>
      </trkpt>
      <trkpt lat="45.03162" lon="6.63413">
        <ele>1873</ele>
        <time>2010-07-21T12:07:15Z</time>
      </trkpt>
      <trkpt lat="45.03143" lon="6.63406">
        <ele>1866</ele>
        <time>2010-07-21T12:07:20Z</time>
      </trkpt>
      <trkpt lat="45.03124" lon="6.63405">
        <ele>1865</ele>
        <time>2010-07-21T12:07:24Z</time>
      </trkpt>
      <trkpt lat="45.03097" lon="6.63408">
        <ele>1868</ele>
        <time>2010-07-21T12:07:29Z</time>
      </trkpt>
      <trkpt lat="45.03082" lon="6.63411">
        <ele>1871</ele>
        <time>2010-07-21T12:07:32Z</time>
      </trkpt>
      <trkpt lat="45.0306" lon="6.63407">
        <ele>1864</ele>
        <time>2010-07-21T12:07:37Z</time>
      </trkpt>
      <trkpt lat="45.03055" lon="6.63404">
        <ele>1862</ele>
        <time>2010-07-21T12:07:38Z</time>
      </trkpt>
      <trkpt lat="45.03037" lon="6.6339">
        <ele>1858</ele>
        <time>2010-07-21T12:07:41Z</time>
      </trkpt>
      <trkpt lat="45.0301" lon="6.63372">
        <ele>1855</ele>
        <time>2010-07-21T12:07:46Z</time>
      </trkpt>
      <trkpt lat="45.02991" lon="6.63381">
        <ele>1846</ele>
        <time>2010-07-21T12:07:50Z</time>
      </trkpt>
      <trkpt lat="45.02986" lon="6.63388">
        <ele>1847</ele>
        <time>2010-07-21T12:07:51Z</time>
      </trkpt>
      <trkpt lat="45.02977" lon="6.634">
        <ele>1847</ele>
        <time>2010-07-21T12:07:53Z</time>
      </trkpt>
      <trkpt lat="45.02951" lon="6.63415">
        <ele>1843</ele>
        <time>2010-07-21T12:07:58Z</time>
      </trkpt>
      <trkpt lat="45.02951" lon="6.63422">
        <ele>1843</ele>
        <time>2010-07-21T12:08:01Z</time>
      </trkpt>
      <trkpt lat="45.02941" lon="6.63423">
        <ele>1842</ele>
        <time>2010-07-21T12:08:06Z</time>
      </trkpt>
      <trkpt lat="45.02938" lon="6.63421">
        <ele>1842</ele>
        <time>2010-07-21T12:08:10Z</time>
      </trkpt>
      <trkpt lat="45.02936" lon="6.63424">
        <ele>1841</ele>
        <time>2010-07-21T12:08:12Z</time>
      </trkpt>
      <trkpt lat="45.02932" lon="6.63423">
        <ele>1841</ele>
        <time>2010-07-21T12:08:16Z</time>
      </trkpt>
      <trkpt lat="45.02926" lon="6.63413">
        <ele>1841</ele>
        <time>2010-07-21T12:08:20Z</time>
      </trkpt>
      <trkpt lat="45.02918" lon="6.63402">
        <ele>1840</ele>
        <time>2010-07-21T12:08:24Z</time>
      </trkpt>
      <trkpt lat="45.02912" lon="6.63403">
        <ele>1829</ele>
        <time>2010-07-21T12:08:27Z</time>
      </trkpt>
      <trkpt lat="45.02894" lon="6.63416">
        <ele>1825</ele>
        <time>2010-07-21T12:08:31Z</time>
      </trkpt>
      <trkpt lat="45.02881" lon="6.6342">
        <ele>1821</ele>
        <time>2010-07-21T12:08:34Z</time>
      </trkpt>
      <trkpt lat="45.02875" lon="6.63423">
        <ele>1819</ele>
        <time>2010-07-21T12:08:36Z</time>
      </trkpt>
      <trkpt lat="45.02873" lon="6.6343">
        <ele>1818</ele>
        <time>2010-07-21T12:08:40Z</time>
      </trkpt>
      <trkpt lat="45.02865" lon="6.63424">
        <ele>1817</ele>
        <time>2010-07-21T12:08:44Z</time>
      </trkpt>
      <trkpt lat="45.02853" lon="6.6341">
        <ele>1813</ele>
        <time>2010-07-21T12:08:48Z</time>
      </trkpt>
      <trkpt lat="45.02846" lon="6.63434">
        <ele>1814</ele>
        <time>2010-07-21T12:08:52Z</time>
      </trkpt>
      <trkpt lat="45.02843" lon="6.6344">
        <ele>1813</ele>
        <time>2010-07-21T12:08:53Z</time>
      </trkpt>
      <trkpt lat="45.02852" lon="6.63457">
        <ele>1813</ele>
        <time>2010-07-21T12:08:57Z</time>
      </trkpt>
      <trkpt lat="45.02858" lon="6.63476">
        <ele>1810</ele>
        <time>2010-07-21T12:09:01Z</time>
      </trkpt>
      <trkpt lat="45.02845" lon="6.63475">
        <ele>1808</ele>
        <time>2010-07-21T12:09:04Z</time>
      </trkpt>
      <trkpt lat="45.02839" lon="6.63474">
        <ele>1808</ele>
        <time>2010-07-21T12:09:05Z</time>
      </trkpt>
      <trkpt lat="45.0281" lon="6.6347">
        <ele>1785</ele>
        <time>2010-07-21T12:09:10Z</time>
      </trkpt>
      <trkpt lat="45.02793" lon="6.63456">
        <ele>1783</ele>
        <time>2010-07-21T12:09:14Z</time>
      </trkpt>
      <trkpt lat="45.0278" lon="6.63445">
        <ele>1780</ele>
        <time>2010-07-21T12:09:17Z</time>
      </trkpt>
      <trkpt lat="45.02771" lon="6.63439">
        <ele>1778</ele>
        <time>2010-07-21T12:09:19Z</time>
      </trkpt>
      <trkpt lat="45.02761" lon="6.63434">
        <ele>1775</ele>
        <time>2010-07-21T12:09:22Z</time>
      </trkpt>
      <trkpt lat="45.02765" lon="6.6344">
        <ele>1776</ele>
        <time>2010-07-21T12:09:24Z</time>
      </trkpt>
      <trkpt lat="45.02772" lon="6.63462">
        <ele>1778</ele>
        <time>2010-07-21T12:09:28Z</time>
      </trkpt>
      <trkpt lat="45.02775" lon="6.63471">
        <ele>1777</ele>
        <time>2010-07-21T12:09:29Z</time>
      </trkpt>
      <trkpt lat="45.02781" lon="6.63483">
        <ele>1778</ele>
        <time>2010-07-21T12:09:31Z</time>
      </trkpt>
      <trkpt lat="45.02793" lon="6.63507">
        <ele>1776</ele>
        <time>2010-07-21T12:09:35Z</time>
      </trkpt>
      <trkpt lat="45.028" lon="6.63524">
        <ele>1777</ele>
        <time>2010-07-21T12:09:37Z</time>
      </trkpt>
      <trkpt lat="45.02809" lon="6.63535">
        <ele>1778</ele>
        <time>2010-07-21T12:09:39Z</time>
      </trkpt>
      <trkpt lat="45.02827" lon="6.6356">
        <ele>1780</ele>
        <time>2010-07-21T12:09:44Z</time>
      </trkpt>
      <trkpt lat="45.02815" lon="6.6357">
        <ele>1779</ele>
        <time>2010-07-21T12:09:48Z</time>
      </trkpt>
      <trkpt lat="45.02804" lon="6.63568">
        <ele>1777</ele>
        <time>2010-07-21T12:09:50Z</time>
      </trkpt>
      <trkpt lat="45.02795" lon="6.63565">
        <ele>1775</ele>
        <time>2010-07-21T12:09:52Z</time>
      </trkpt>
      <trkpt lat="45.02794" lon="6.6356">
        <ele>1775</ele>
        <time>2010-07-21T12:09:57Z</time>
      </trkpt>
      <trkpt lat="45.02783" lon="6.63559">
        <ele>1773</ele>
        <time>2010-07-21T12:10:01Z</time>
      </trkpt>
      <trkpt lat="45.02773" lon="6.6356">
        <ele>1772</ele>
        <time>2010-07-21T12:10:04Z</time>
      </trkpt>
      <trkpt lat="45.02765" lon="6.63556">
        <ele>1771</ele>
        <time>2010-07-21T12:10:08Z</time>
      </trkpt>
      <trkpt lat="45.02755" lon="6.63551">
        <ele>1770</ele>
        <time>2010-07-21T12:10:14Z</time>
      </trkpt>
      <trkpt lat="45.02752" lon="6.63554">
        <ele>1770</ele>
        <time>2010-07-21T12:10:15Z</time>
      </trkpt>
      <trkpt lat="45.0275" lon="6.63562">
        <ele>1769</ele>
        <time>2010-07-21T12:10:24Z</time>
      </trkpt>
      <trkpt lat="45.02751" lon="6.63558">
        <ele>1770</ele>
        <time>2010-07-21T12:10:38Z</time>
      </trkpt>
      <trkpt lat="45.02746" lon="6.63554">
        <ele>1753</ele>
        <time>2010-07-21T12:11:05Z</time>
      </trkpt>
      <trkpt lat="45.02743" lon="6.63558">
        <ele>1754</ele>
        <time>2010-07-21T12:11:11Z</time>
      </trkpt>
      <trkpt lat="45.0274" lon="6.63563">
        <ele>1754</ele>
        <time>2010-07-21T12:11:16Z</time>
      </trkpt>
      <trkpt lat="45.02733" lon="6.63567">
        <ele>1754</ele>
        <time>2010-07-21T12:11:23Z</time>
      </trkpt>
      <trkpt lat="45.02717" lon="6.63569">
        <ele>1750</ele>
        <time>2010-07-21T12:11:26Z</time>
      </trkpt>
      <trkpt lat="45.02708" lon="6.63569">
        <ele>1749</ele>
        <time>2010-07-21T12:11:28Z</time>
      </trkpt>
      <trkpt lat="45.02705" lon="6.63553">
        <ele>1747</ele>
        <time>2010-07-21T12:11:33Z</time>
      </trkpt>
      <trkpt lat="45.02704" lon="6.63552">
        <ele>1747</ele>
        <time>2010-07-21T12:11:34Z</time>
      </trkpt>
      <trkpt lat="45.02684" lon="6.6354">
        <ele>1743</ele>
        <time>2010-07-21T12:11:40Z</time>
      </trkpt>
      <trkpt lat="45.02672" lon="6.63531">
        <ele>1739</ele>
        <time>2010-07-21T12:11:44Z</time>
      </trkpt>
      <trkpt lat="45.02668" lon="6.63528">
        <ele>1738</ele>
        <time>2010-07-21T12:11:48Z</time>
      </trkpt>
      <trkpt lat="45.02658" lon="6.63524">
        <ele>1721</ele>
        <time>2010-07-21T12:11:51Z</time>
      </trkpt>
      <trkpt lat="45.02641" lon="6.63515">
        <ele>1718</ele>
        <time>2010-07-21T12:11:55Z</time>
      </trkpt>
      <trkpt lat="45.02632" lon="6.63511">
        <ele>1717</ele>
        <time>2010-07-21T12:11:57Z</time>
      </trkpt>
      <trkpt lat="45.02622" lon="6.63506">
        <ele>1714</ele>
        <time>2010-07-21T12:11:59Z</time>
      </trkpt>
      <trkpt lat="45.02598" lon="6.63501">
        <ele>1705</ele>
        <time>2010-07-21T12:12:04Z</time>
      </trkpt>
      <trkpt lat="45.02591" lon="6.63499">
        <ele>1696</ele>
        <time>2010-07-21T12:12:06Z</time>
      </trkpt>
      <trkpt lat="45.02592" lon="6.63503">
        <ele>1701</ele>
        <time>2010-07-21T12:12:12Z</time>
      </trkpt>
      <trkpt lat="45.026" lon="6.635">
        <ele>1705</ele>
        <time>2010-07-21T12:12:20Z</time>
      </trkpt>
      <trkpt lat="45.02602" lon="6.635">
        <ele>1707</ele>
        <time>2010-07-21T12:12:30Z</time>
      </trkpt>
      <trkpt lat="45.02598" lon="6.635">
        <ele>1705</ele>
        <time>2010-07-21T12:12:32Z</time>
      </trkpt>
      <trkpt lat="45.02582" lon="6.63502">
        <ele>1693</ele>
        <time>2010-07-21T12:12:36Z</time>
      </trkpt>
      <trkpt lat="45.02558" lon="6.63503">
        <ele>1693</ele>
        <time>2010-07-21T12:12:40Z</time>
      </trkpt>
      <trkpt lat="45.02524" lon="6.63511">
        <ele>1687</ele>
        <time>2010-07-21T12:12:45Z</time>
      </trkpt>
      <trkpt lat="45.0251" lon="6.6351">
        <ele>1683</ele>
        <time>2010-07-21T12:12:47Z</time>
      </trkpt>
      <trkpt lat="45.02497" lon="6.63514">
        <ele>1674</ele>
        <time>2010-07-21T12:12:49Z</time>
      </trkpt>
      <trkpt lat="45.02472" lon="6.63519">
        <ele>1672</ele>
        <time>2010-07-21T12:12:53Z</time>
      </trkpt>
      <trkpt lat="45.02467" lon="6.63521">
        <ele>1672</ele>
        <time>2010-07-21T12:12:54Z</time>
      </trkpt>
      <trkpt lat="45.02454" lon="6.63526">
        <ele>1671</ele>
        <time>2010-07-21T12:12:56Z</time>
      </trkpt>
      <trkpt lat="45.02416" lon="6.63535">
        <ele>1659</ele>
        <time>2010-07-21T12:13:01Z</time>
      </trkpt>
      <trkpt lat="45.02411" lon="6.63536">
        <ele>1659</ele>
        <time>2010-07-21T12:13:02Z</time>
      </trkpt>
      <trkpt lat="45.02393" lon="6.63546">
        <ele>1658</ele>
        <time>2010-07-21T12:13:06Z</time>
      </trkpt>
      <trkpt lat="45.02381" lon="6.63545">
        <ele>1658</ele>
        <time>2010-07-21T12:13:08Z</time>
      </trkpt>
      <trkpt lat="45.02357" lon="6.63561">
        <ele>1656</ele>
        <time>2010-07-21T12:13:13Z</time>
      </trkpt>
      <trkpt lat="45.02348" lon="6.63573">
        <ele>1655</ele>
        <time>2010-07-21T12:13:15Z</time>
      </trkpt>
      <trkpt lat="45.02324" lon="6.63584">
        <ele>1650</ele>
        <time>2010-07-21T12:13:19Z</time>
      </trkpt>
      <trkpt lat="45.02309" lon="6.63587">
        <ele>1649</ele>
        <time>2010-07-21T12:13:21Z</time>
      </trkpt>
      <trkpt lat="45.02277" lon="6.63593">
        <ele>1646</ele>
        <time>2010-07-21T12:13:25Z</time>
      </trkpt>
      <trkpt lat="45.02254" lon="6.63591">
        <ele>1645</ele>
        <time>2010-07-21T12:13:28Z</time>
      </trkpt>
      <trkpt lat="45.02192" lon="6.63598">
        <ele>1637</ele>
        <time>2010-07-21T12:13:35Z</time>
      </trkpt>
      <trkpt lat="45.02144" lon="6.63591">
        <ele>1630</ele>
        <time>2010-07-21T12:13:40Z</time>
      </trkpt>
      <trkpt lat="45.02124" lon="6.63586">
        <ele>1629</ele>
        <time>2010-07-21T12:13:42Z</time>
      </trkpt>
      <trkpt lat="45.02092" lon="6.6357">
        <ele>1627</ele>
        <time>2010-07-21T12:13:46Z</time>
      </trkpt>
      <trkpt lat="45.02063" lon="6.63555">
        <ele>1622</ele>
        <time>2010-07-21T12:13:51Z</time>
      </trkpt>
      <trkpt lat="45.02045" lon="6.63565">
        <ele>1621</ele>
        <time>2010-07-21T12:13:54Z</time>
      </trkpt>
      <trkpt lat="45.02038" lon="6.63565">
        <ele>1621</ele>
        <time>2010-07-21T12:13:57Z</time>
      </trkpt>
      <trkpt lat="45.02035" lon="6.63565">
        <ele>1620</ele>
        <time>2010-07-21T12:13:59Z</time>
      </trkpt>
      <trkpt lat="45.02031" lon="6.63563">
        <ele>1620</ele>
        <time>2010-07-21T12:14:05Z</time>
      </trkpt>
      <trkpt lat="45.02031" lon="6.63564">
        <ele>1620</ele>
        <time>2010-07-21T12:14:17Z</time>
      </trkpt>
      <trkpt lat="45.02028" lon="6.63563">
        <ele>1620</ele>
        <time>2010-07-21T12:14:28Z</time>
      </trkpt>
      <trkpt lat="45.02026" lon="6.6356">
        <ele>1620</ele>
        <time>2010-07-21T12:14:33Z</time>
      </trkpt>
      <trkpt lat="45.02027" lon="6.63539">
        <ele>1621</ele>
        <time>2010-07-21T12:14:39Z</time>
      </trkpt>
      <trkpt lat="45.02029" lon="6.63518">
        <ele>1621</ele>
        <time>2010-07-21T12:14:45Z</time>
      </trkpt>
      <trkpt lat="45.0203" lon="6.63496">
        <ele>1622</ele>
        <time>2010-07-21T12:14:51Z</time>
      </trkpt>
      <trkpt lat="45.0203" lon="6.63486">
        <ele>1622</ele>
        <time>2010-07-21T12:14:54Z</time>
      </trkpt>
      <trkpt lat="45.02024" lon="6.6347">
        <ele>1622</ele>
        <time>2010-07-21T12:14:58Z</time>
      </trkpt>
      <trkpt lat="45.02018" lon="6.6343">
        <ele>1621</ele>
        <time>2010-07-21T12:15:06Z</time>
      </trkpt>
      <trkpt lat="45.02016" lon="6.63396">
        <ele>1621</ele>
        <time>2010-07-21T12:15:14Z</time>
      </trkpt>
      <trkpt lat="45.02015" lon="6.63393">
        <ele>1621</ele>
        <time>2010-07-21T12:15:15Z</time>
      </trkpt>
      <trkpt lat="45.02011" lon="6.63389">
        <ele>1621</ele>
        <time>2010-07-21T12:15:20Z</time>
      </trkpt>
      <trkpt lat="45.02011" lon="6.63386">
        <ele>1621</ele>
        <time>2010-07-21T12:15:23Z</time>
      </trkpt>
      <trkpt lat="45.02014" lon="6.63368">
        <ele>1620</ele>
        <time>2010-07-21T12:15:28Z</time>
      </trkpt>
      <trkpt lat="45.02015" lon="6.63357">
        <ele>1620</ele>
        <time>2010-07-21T12:15:30Z</time>
      </trkpt>
      <trkpt lat="45.02006" lon="6.6335">
        <ele>1619</ele>
        <time>2010-07-21T12:15:33Z</time>
      </trkpt>
      <trkpt lat="45.01989" lon="6.63344">
        <ele>1614</ele>
        <time>2010-07-21T12:15:36Z</time>
      </trkpt>
      <trkpt lat="45.01981" lon="6.63328">
        <ele>1613</ele>
        <time>2010-07-21T12:15:38Z</time>
      </trkpt>
      <trkpt lat="45.0196" lon="6.63291">
        <ele>1611</ele>
        <time>2010-07-21T12:15:43Z</time>
      </trkpt>
      <trkpt lat="45.01936" lon="6.63264">
        <ele>1609</ele>
        <time>2010-07-21T12:15:48Z</time>
      </trkpt>
      <trkpt lat="45.01929" lon="6.63261">
        <ele>1608</ele>
        <time>2010-07-21T12:15:50Z</time>
      </trkpt>
      <trkpt lat="45.0192" lon="6.63255">
        <ele>1607</ele>
        <time>2010-07-21T12:15:53Z</time>
      </trkpt>
      <trkpt lat="45.01916" lon="6.6324">
        <ele>1605</ele>
        <time>2010-07-21T12:15:57Z</time>
      </trkpt>
      <trkpt lat="45.01916" lon="6.63234">
        <ele>1605</ele>
        <time>2010-07-21T12:15:58Z</time>
      </trkpt>
      <trkpt lat="45.01921" lon="6.6319">
        <ele>1609</ele>
        <time>2010-07-21T12:16:06Z</time>
      </trkpt>
      <trkpt lat="45.0193" lon="6.63155">
        <ele>1609</ele>
        <time>2010-07-21T12:16:12Z</time>
      </trkpt>
      <trkpt lat="45.01943" lon="6.63117">
        <ele>1609</ele>
        <time>2010-07-21T12:16:19Z</time>
      </trkpt>
      <trkpt lat="45.01948" lon="6.63102">
        <ele>1609</ele>
        <time>2010-07-21T12:16:22Z</time>
      </trkpt>
      <trkpt lat="45.01956" lon="6.63057">
        <ele>1609</ele>
        <time>2010-07-21T12:16:31Z</time>
      </trkpt>
      <trkpt lat="45.01966" lon="6.63025">
        <ele>1609</ele>
        <time>2010-07-21T12:16:37Z</time>
      </trkpt>
      <trkpt lat="45.01981" lon="6.63003">
        <ele>1611</ele>
        <time>2010-07-21T12:16:42Z</time>
      </trkpt>
      <trkpt lat="45.01987" lon="6.62985">
        <ele>1610</ele>
        <time>2010-07-21T12:16:46Z</time>
      </trkpt>
      <trkpt lat="45.01993" lon="6.62942">
        <ele>1608</ele>
        <time>2010-07-21T12:16:53Z</time>
      </trkpt>
      <trkpt lat="45.02005" lon="6.62893">
        <ele>1609</ele>
        <time>2010-07-21T12:16:59Z</time>
      </trkpt>
      <trkpt lat="45.02006" lon="6.62885">
        <ele>1609</ele>
        <time>2010-07-21T12:17:00Z</time>
      </trkpt>
      <trkpt lat="45.02007" lon="6.6285">
        <ele>1609</ele>
        <time>2010-07-21T12:17:05Z</time>
      </trkpt>
      <trkpt lat="45.02002" lon="6.62826">
        <ele>1608</ele>
        <time>2010-07-21T12:17:09Z</time>
      </trkpt>
      <trkpt lat="45.0199" lon="6.62792">
        <ele>1605</ele>
        <time>2010-07-21T12:17:15Z</time>
      </trkpt>
      <trkpt lat="45.01982" lon="6.62766">
        <ele>1606</ele>
        <time>2010-07-21T12:17:19Z</time>
      </trkpt>
      <trkpt lat="45.01966" lon="6.62714">
        <ele>1606</ele>
        <time>2010-07-21T12:17:27Z</time>
      </trkpt>
      <trkpt lat="45.0196" lon="6.62681">
        <ele>1606</ele>
        <time>2010-07-21T12:17:32Z</time>
      </trkpt>
      <trkpt lat="45.01941" lon="6.62629">
        <ele>1606</ele>
        <time>2010-07-21T12:17:40Z</time>
      </trkpt>
      <trkpt lat="45.01932" lon="6.62605">
        <ele>1605</ele>
        <time>2010-07-21T12:17:44Z</time>
      </trkpt>
      <trkpt lat="45.01924" lon="6.62574">
        <ele>1604</ele>
        <time>2010-07-21T12:17:48Z</time>
      </trkpt>
      <trkpt lat="45.01919" lon="6.62559">
        <ele>1605</ele>
        <time>2010-07-21T12:17:50Z</time>
      </trkpt>
      <trkpt lat="45.019" lon="6.62528">
        <ele>1598</ele>
        <time>2010-07-21T12:17:54Z</time>
      </trkpt>
      <trkpt lat="45.01888" lon="6.62504">
        <ele>1598</ele>
        <time>2010-07-21T12:17:57Z</time>
      </trkpt>
      <trkpt lat="45.01884" lon="6.62476">
        <ele>1598</ele>
        <time>2010-07-21T12:18:00Z</time>
      </trkpt>
      <trkpt lat="45.01876" lon="6.62433">
        <ele>1598</ele>
        <time>2010-07-21T12:18:06Z</time>
      </trkpt>
      <trkpt lat="45.01871" lon="6.62374">
        <ele>1598</ele>
        <time>2010-07-21T12:18:13Z</time>
      </trkpt>
      <trkpt lat="45.01869" lon="6.62367">
        <ele>1598</ele>
        <time>2010-07-21T12:18:14Z</time>
      </trkpt>
      <trkpt lat="45.01851" lon="6.62327">
        <ele>1596</ele>
        <time>2010-07-21T12:18:19Z</time>
      </trkpt>
      <trkpt lat="45.01838" lon="6.62284">
        <ele>1596</ele>
        <time>2010-07-21T12:18:24Z</time>
      </trkpt>
      <trkpt lat="45.01807" lon="6.62224">
        <ele>1589</ele>
        <time>2010-07-21T12:18:32Z</time>
      </trkpt>
      <trkpt lat="45.01796" lon="6.62201">
        <ele>1589</ele>
        <time>2010-07-21T12:18:36Z</time>
      </trkpt>
      <trkpt lat="45.01794" lon="6.62197">
        <ele>1589</ele>
        <time>2010-07-21T12:18:37Z</time>
      </trkpt>
      <trkpt lat="45.01785" lon="6.62187">
        <ele>1588</ele>
        <time>2010-07-21T12:18:41Z</time>
      </trkpt>
    </trkseg>
  </trk>
</gpx>